Observation data for Lomax on 01/12/2018      Previous  Date  Next       Current Mesonet Observations  Soil Data  Daily Summary Page  Observations in Plain Language
KLO1 120600Z 07002KT M03/M13 A303 RMK A01 T10251128  RH  045%=      5-min Rain = 0
KLO1 120601Z 07001KT M03/M13 A303 RMK A01 T10251128  RH  045%=      5-min Rain = 0
KLO1 120602Z 07001KT M03/M13 A303 RMK A01 T10261127  RH  046%=      5-min Rain = 0
KLO1 120603Z 07001KT M02/M12 A303 RMK A01 T10241124  RH  046%=      5-min Rain = 0
KLO1 120604Z 07001KT M02/M12 A303 RMK A01 T10241124  RH  046%=      5-min Rain = 0
KLO1 120605Z 08002KT M02/M13 A303 RMK A01 T10241125  RH  046%=      5-min Rain = 0
KLO1 120606Z 08001KT M03/M13 A303 RMK A01 T10251127  RH  046%=      5-min Rain = 0
KLO1 120607Z 08000KT M03/M13 A303 RMK A01 T10261129  RH  045%=      5-min Rain = 0
KLO1 120608Z 00000KT M03/M13 A303 RMK A01 T10281130  RH  045%=      5-min Rain = 0
KLO1 120609Z 00000KT M03/M13 A303 RMK A01 T10301133  RH  045%=      5-min Rain = 0
KLO1 120610Z 00000KT M03/M14 A303 RMK A01 T10321136  RH  045%=      5-min Rain = 0
KLO1 120611Z 00000KT M03/M14 A303 RMK A01 T10341136  RH  045%=      5-min Rain = 0
KLO1 120612Z 00000KT M04/M13 A303 RMK A01 T10351133  RH  047%=      5-min Rain = 0
KLO1 120613Z 14001KT M04/M13 A303 RMK A01 T10361131  RH  048%=      5-min Rain = 0
KLO1 120614Z 14000KT M04/M13 A303 RMK A01 T10361131  RH  048%=      5-min Rain = 0
KLO1 120615Z 15000KT M04/M13 A303 RMK A01 T10351132  RH  047%=      5-min Rain = 0
KLO1 120616Z 00000KT M03/M13 A303 RMK A01 T10341133  RH  047%=      5-min Rain = 0
KLO1 120617Z 00000KT M03/M13 A303 RMK A01 T10341134  RH  046%=      5-min Rain = 0
KLO1 120618Z 00000KT M04/M14 A303 RMK A01 T10351136  RH  045%=      5-min Rain = 0
KLO1 120619Z 00000KT M04/M14 A303 RMK A01 T10361137  RH  045%=      5-min Rain = 0
KLO1 120620Z 00000KT M04/M14 A303 RMK A01 T10371137  RH  046%=      5-min Rain = 0
KLO1 120621Z 00000KT M04/M14 A303 RMK A01 T10371136  RH  046%=      5-min Rain = 0
KLO1 120622Z 00000KT M04/M14 A303 RMK A01 T10371135  RH  047%=      5-min Rain = 0
KLO1 120623Z 18001KT M04/M13 A303 RMK A01 T10371134  RH  047%=      5-min Rain = 0
KLO1 120624Z 18001KT M04/M13 A303 RMK A01 T10371133  RH  047%=      5-min Rain = 0
KLO1 120625Z 18001KT M04/M13 A303 RMK A01 T10371132  RH  048%=      5-min Rain = 0
KLO1 120626Z 18001KT M04/M13 A303 RMK A01 T10371131  RH  048%=      5-min Rain = 0
KLO1 120627Z 18002KT M04/M13 A303 RMK A01 T10361130  RH  048%=      5-min Rain = 0
KLO1 120628Z 18002KT M04/M13 A303 RMK A01 T10371130  RH  049%=      5-min Rain = 0
KLO1 120629Z 18001KT M04/M13 A303 RMK A01 T10371129  RH  049%=      5-min Rain = 0
KLO1 120630Z 18001KT M04/M13 A303 RMK A01 T10361128  RH  049%=      5-min Rain = 0
KLO1 120631Z 18000KT M04/M13 A303 RMK A01 T10361127  RH  049%=      5-min Rain = 0
KLO1 120632Z 00000KT M04/M13 A303 RMK A01 T10351126  RH  049%=      5-min Rain = 0
KLO1 120633Z 00000KT M03/M13 A303 RMK A01 T10341125  RH  049%=      5-min Rain = 0
KLO1 120634Z 00000KT M03/M13 A303 RMK A01 T10341125  RH  049%=      5-min Rain = 0
KLO1 120635Z 00000KT M03/M13 A303 RMK A01 T10341126  RH  049%=      5-min Rain = 0
KLO1 120636Z 00000KT M03/M13 A303 RMK A01 T10341127  RH  049%=      5-min Rain = 0
KLO1 120637Z 00000KT M03/M13 A303 RMK A01 T10341127  RH  048%=      5-min Rain = 0
KLO1 120638Z 00000KT M03/M13 A303 RMK A01 T10341128  RH  049%=      5-min Rain = 0
KLO1 120639Z 00000KT M04/M13 A303 RMK A01 T10351127  RH  049%=      5-min Rain = 0
KLO1 120640Z 00000KT M04/M13 A303 RMK A01 T10351127  RH  049%=      5-min Rain = 0
KLO1 120641Z 00000KT M04/M13 A3031 RMK A01 T10351126  RH  049%=      5-min Rain = 0
KLO1 120642Z 00000KT M03/M13 A3031 RMK A01 T10341126  RH  049%=      5-min Rain = 0
KLO1 120643Z 00000KT M03/M13 A303 RMK A01 T10331125  RH  049%=      5-min Rain = 0
KLO1 120644Z 00000KT M03/M12 A303 RMK A01 T10331124  RH  049%=      5-min Rain = 0
KLO1 120645Z 00000KT M03/M12 A303 RMK A01 T10331124  RH  049%=      5-min Rain = 0
KLO1 120646Z 00000KT M03/M12 A303 RMK A01 T10321124  RH  049%=      5-min Rain = 0
KLO1 120647Z 00000KT M03/M13 A303 RMK A01 T10331125  RH  049%=      5-min Rain = 0
KLO1 120648Z 00000KT M03/M12 A303 RMK A01 T10321124  RH  049%=      5-min Rain = 0
KLO1 120649Z 00000KT M03/M13 A303 RMK A01 T10331125  RH  049%=      5-min Rain = 0
KLO1 120650Z 00000KT M03/M13 A303 RMK A01 T10331125  RH  049%=      5-min Rain = 0
KLO1 120651Z 00000KT M03/M13 A303 RMK A01 T10341126  RH  049%=      5-min Rain = 0
KLO1 120652Z 00000KT M03/M13 A303 RMK A01 T10341125  RH  049%=      5-min Rain = 0
KLO1 120653Z 00000KT M03/M13 A303 RMK A01 T10341126  RH  049%=      5-min Rain = 0
KLO1 120654Z 00000KT M04/M13 A303 RMK A01 T10351126  RH  049%=      5-min Rain = 0
KLO1 120655Z 00000KT M04/M13 A303 RMK A01 T10351126  RH  050%=      5-min Rain = 0
KLO1 120656Z 00000KT M04/M13 A303 RMK A01 T10351125  RH  050%=      5-min Rain = 0
KLO1 120657Z 00000KT M04/M12 A303 RMK A01 T10351124  RH  050%=      5-min Rain = 0
KLO1 120658Z 00000KT M03/M12 A303 RMK A01 T10341123  RH  050%=      5-min Rain = 0
KLO1 120659Z 00000KT M03/M12 A303 RMK A01 T10331123  RH  050%=      5-min Rain = 0
KLO1 120700Z 00000KT M03/M12 A303 RMK A01 T10331123  RH  050%=      5-min Rain = 0
KLO1 120701Z 00000KT M03/M12 A303 RMK A01 T10331123  RH  050%=      5-min Rain = 0
KLO1 120702Z 00000KT M03/M12 A303 RMK A01 T10341122  RH  050%=      5-min Rain = 0
KLO1 120703Z 00000KT M04/M12 A303 RMK A01 T10351123  RH  051%=      5-min Rain = 0
KLO1 120704Z 00000KT M04/M12 A303 RMK A01 T10371123  RH  051%=      5-min Rain = 0
KLO1 120705Z 00000KT M04/M12 A303 RMK A01 T10381123  RH  052%=      5-min Rain = 0
KLO1 120706Z 00000KT M04/M12 A303 RMK A01 T10391121  RH  053%=      5-min Rain = 0
KLO1 120707Z 00000KT M04/M12 A3029 RMK A01 T10381119  RH  053%=      5-min Rain = 0
KLO1 120708Z 00000KT M04/M12 A3029 RMK A01 T10381120  RH  053%=      5-min Rain = 0
KLO1 120709Z 00000KT M04/M12 A3029 RMK A01 T10391122  RH  052%=      5-min Rain = 0
KLO1 120710Z 00000KT M04/M13 A3029 RMK A01 T10411125  RH  052%=      5-min Rain = 0
KLO1 120711Z 00000KT M04/M13 A3029 RMK A01 T10431126  RH  052%=      5-min Rain = 0
KLO1 120712Z 00000KT M04/M13 A3029 RMK A01 T10441126  RH  053%=      5-min Rain = 0
KLO1 120713Z 00000KT M04/M13 A3029 RMK A01 T10441126  RH  053%=      5-min Rain = 0
KLO1 120714Z 00000KT M05/M13 A3029 RMK A01 T10451126  RH  053%=      5-min Rain = 0
KLO1 120715Z 00000KT M05/M13 A3029 RMK A01 T10451125  RH  054%=      5-min Rain = 0
KLO1 120716Z 00000KT M05/M13 A3029 RMK A01 T10451125  RH  054%=      5-min Rain = 0
KLO1 120717Z 00000KT M05/M12 A3029 RMK A01 T10451124  RH  054%=      5-min Rain = 0
KLO1 120718Z 00000KT M05/M12 A3029 RMK A01 T10451124  RH  054%=      5-min Rain = 0
KLO1 120719Z 00000KT M04/M12 A3029 RMK A01 T10441124  RH  054%=      5-min Rain = 0
KLO1 120720Z 00000KT M04/M12 A3029 RMK A01 T10441124  RH  054%=      5-min Rain = 0
KLO1 120721Z 00000KT M04/M12 A3029 RMK A01 T10441124  RH  054%=      5-min Rain = 0
KLO1 120722Z 00000KT M04/M12 A3029 RMK A01 T10441124  RH  054%=      5-min Rain = 0
KLO1 120723Z 00000KT M04/M12 A3029 RMK A01 T10441124  RH  054%=      5-min Rain = 0
KLO1 120724Z 00000KT M05/M12 A3029 RMK A01 T10451124  RH  054%=      5-min Rain = 0
KLO1 120725Z 00000KT M04/M12 A3029 RMK A01 T10441124  RH  054%=      5-min Rain = 0
KLO1 120726Z 00000KT M04/M12 A3029 RMK A01 T10441123  RH  054%=      5-min Rain = 0
KLO1 120727Z 00000KT M04/M12 A3029 RMK A01 T10441124  RH  054%=      5-min Rain = 0
KLO1 120728Z 00000KT M04/M12 A3029 RMK A01 T10431123  RH  054%=      5-min Rain = 0
KLO1 120729Z 00000KT M04/M12 A3029 RMK A01 T10431122  RH  054%=      5-min Rain = 0
KLO1 120730Z 00000KT M04/M12 A3029 RMK A01 T10431122  RH  054%=      5-min Rain = 0
KLO1 120731Z 00000KT M04/M12 A3029 RMK A01 T10431121  RH  055%=      5-min Rain = 0
KLO1 120732Z 00000KT M04/M12 A3029 RMK A01 T10431121  RH  054%=      5-min Rain = 0
KLO1 120733Z 25001KT M04/M12 A3029 RMK A01 T10441123  RH  054%=      5-min Rain = 0
KLO1 120734Z 25002KT M05/M12 A3029 RMK A01 T10451123  RH  054%=      5-min Rain = 0
KLO1 120735Z 25002KT M05/M12 A3029 RMK A01 T10451121  RH  056%=      5-min Rain = 0
KLO1 120736Z 25002KT M04/M12 A3029 RMK A01 T10431118  RH  056%=      5-min Rain = 0
KLO1 120737Z 25002KT M04/M12 A3029 RMK A01 T10421116  RH  056%=      5-min Rain = 0
KLO1 120738Z 25003KT M04/M12 A3029 RMK A01 T10411117  RH  056%=      5-min Rain = 0
KLO1 120739Z 25003KT M04/M12 A3029 RMK A01 T10411117  RH  056%=      5-min Rain = 0
KLO1 120740Z 24002KT M04/M12 A3029 RMK A01 T10411117  RH  055%=      5-min Rain = 0
KLO1 120741Z 24002KT M04/M12 A3029 RMK A01 T10401118  RH  055%=      5-min Rain = 0
KLO1 120742Z 24003KT M04/M12 A3029 RMK A01 T10401118  RH  055%=      5-min Rain = 0
KLO1 120743Z 24003KT M04/M12 A3029 RMK A01 T10401118  RH  055%=      5-min Rain = 0
KLO1 120744Z 24003KT M04/M12 A303 RMK A01 T10401119  RH  054%=      5-min Rain = 0
KLO1 120745Z 24004KT M04/M12 A303 RMK A01 T10411119  RH  054%=      5-min Rain = 0
KLO1 120746Z 24004KT M04/M12 A303 RMK A01 T10401118  RH  055%=      5-min Rain = 0
KLO1 120747Z 24005KT M04/M12 A303 RMK A01 T10401118  RH  055%=      5-min Rain = 0
KLO1 120748Z 23005KT M04/M12 A303 RMK A01 T10401117  RH  055%=      5-min Rain = 0
KLO1 120749Z 22004KT M04/M12 A303 RMK A01 T10401117  RH  055%=      5-min Rain = 0
KLO1 120750Z 22005KT M04/M12 A303 RMK A01 T10401118  RH  055%=      5-min Rain = 0
KLO1 120751Z 22005KT M04/M12 A303 RMK A01 T10401118  RH  055%=      5-min Rain = 0
KLO1 120752Z 22005KT M04/M12 A303 RMK A01 T10411119  RH  054%=      5-min Rain = 0
KLO1 120753Z 22005KT M04/M12 A3029 RMK A01 T10411119  RH  055%=      5-min Rain = 0
KLO1 120754Z 22005KT M04/M12 A303 RMK A01 T10411118  RH  055%=      5-min Rain = 0
KLO1 120755Z 23005KT M04/M12 A303 RMK A01 T10411117  RH  056%=      5-min Rain = 0
KLO1 120756Z 22004KT M04/M12 A303 RMK A01 T10411116  RH  056%=      5-min Rain = 0
KLO1 120757Z 23004KT M04/M11 A3029 RMK A01 T10411114  RH  057%=      5-min Rain = 0
KLO1 120758Z 23004KT M04/M11 A3029 RMK A01 T10411112  RH  058%=      5-min Rain = 0
KLO1 120759Z 22004KT M04/M11 A3029 RMK A01 T10401111  RH  058%=      5-min Rain = 0
KLO1 120800Z 22004KT M04/M11 A3029 RMK A01 T10391109  RH  058%=      5-min Rain = 0
KLO1 120801Z 22004KT M04/M11 A3029 RMK A01 T10371108  RH  058%=      5-min Rain = 0
KLO1 120802Z 22004KT M04/M11 A3029 RMK A01 T10361108  RH  057%=      5-min Rain = 0
KLO1 120803Z 23003KT M04/M11 A3029 RMK A01 T10361109  RH  057%=      5-min Rain = 0
KLO1 120804Z 23003KT M04/M11 A3029 RMK A01 T10361111  RH  056%=      5-min Rain = 0
KLO1 120805Z 23003KT M04/M11 A3029 RMK A01 T10361113  RH  055%=      5-min Rain = 0
KLO1 120806Z 22004KT M04/M11 A3029 RMK A01 T10371114  RH  055%=      5-min Rain = 0
KLO1 120807Z 22004KT M04/M12 A3029 RMK A01 T10371115  RH  054%=      5-min Rain = 0
KLO1 120808Z 22004KT M04/M12 A3029 RMK A01 T10371116  RH  054%=      5-min Rain = 0
KLO1 120809Z 22004KT M04/M12 A3029 RMK A01 T10371117  RH  054%=      5-min Rain = 0
KLO1 120810Z 22004KT M04/M12 A3029 RMK A01 T10361118  RH  053%=      5-min Rain = 0
KLO1 120811Z 21004KT M04/M12 A3029 RMK A01 T10371120  RH  053%=      5-min Rain = 0
KLO1 120812Z 21004KT M04/M12 A3029 RMK A01 T10381122  RH  052%=      5-min Rain = 0
KLO1 120813Z 21005KT M04/M12 A3029 RMK A01 T10401123  RH  052%=      5-min Rain = 0
KLO1 120814Z 21005KT M04/M13 A3029 RMK A01 T10421125  RH  052%=      5-min Rain = 0
KLO1 120815Z 21005KT M04/M13 A3029 RMK A01 T10441127  RH  052%=      5-min Rain = 0
KLO1 120816Z 21005KT M05/M13 A3029 RMK A01 T10461127  RH  053%=      5-min Rain = 0
KLO1 120817Z 21005KT M05/M13 A3029 RMK A01 T10461127  RH  053%=      5-min Rain = 0
KLO1 120818Z 21005KT M05/M13 A3029 RMK A01 T10461126  RH  054%=      5-min Rain = 0
KLO1 120819Z 21005KT M05/M13 A3029 RMK A01 T10461125  RH  054%=      5-min Rain = 0
KLO1 120820Z 20006KT M05/M13 A3029 RMK A01 T10461125  RH  054%=      5-min Rain = 0
KLO1 120821Z 20006KT M05/M12 A3029 RMK A01 T10451124  RH  054%=      5-min Rain = 0
KLO1 120822Z 20006KT M04/M12 A3029 RMK A01 T10441123  RH  054%=      5-min Rain = 0
KLO1 120823Z 21006KT M04/M12 A3029 RMK A01 T10441123  RH  054%=      5-min Rain = 0
KLO1 120824Z 21006KT M04/M12 A3029 RMK A01 T10441124  RH  054%=      5-min Rain = 0
KLO1 120825Z 21006KT M04/M12 A3029 RMK A01 T10441123  RH  054%=      5-min Rain = 0
KLO1 120826Z 21006KT M04/M12 A3029 RMK A01 T10441124  RH  054%=      5-min Rain = 0
KLO1 120827Z 21005KT M04/M12 A3029 RMK A01 T10441123  RH  054%=      5-min Rain = 0
KLO1 120828Z 21005KT M04/M12 A3029 RMK A01 T10441123  RH  054%=      5-min Rain = 0
KLO1 120829Z 21005KT M04/M12 A3029 RMK A01 T10441123  RH  054%=      5-min Rain = 0
KLO1 120830Z 21005KT M04/M12 A3029 RMK A01 T10441123  RH  054%=      5-min Rain = 0
KLO1 120831Z 21004KT M04/M12 A3029 RMK A01 T10441122  RH  054%=      5-min Rain = 0
KLO1 120832Z 22004KT M04/M12 A3029 RMK A01 T10441122  RH  054%=      5-min Rain = 0
KLO1 120833Z 22003KT M04/M12 A3029 RMK A01 T10431122  RH  054%=      5-min Rain = 0
KLO1 120834Z 21003KT M04/M12 A3029 RMK A01 T10431122  RH  054%=      5-min Rain = 0
KLO1 120835Z 21004KT M04/M12 A3029 RMK A01 T10431122  RH  054%=      5-min Rain = 0
KLO1 120836Z 21004KT M04/M12 A3029 RMK A01 T10431122  RH  054%=      5-min Rain = 0
KLO1 120837Z 21003KT M04/M12 A3029 RMK A01 T10431122  RH  054%=      5-min Rain = 0
KLO1 120838Z 20003KT M04/M12 A3029 RMK A01 T10421122  RH  054%=      5-min Rain = 0
KLO1 120839Z 20003KT M04/M12 A3029 RMK A01 T10421122  RH  054%=      5-min Rain = 0
KLO1 120840Z 21002KT M04/M12 A3029 RMK A01 T10421122  RH  054%=      5-min Rain = 0
KLO1 120841Z 21002KT M04/M12 A3029 RMK A01 T10431121  RH  054%=      5-min Rain = 0
KLO1 120842Z 22002KT M04/M12 A3029 RMK A01 T10421120  RH  055%=      5-min Rain = 0
KLO1 120843Z 22003KT M04/M12 A3029 RMK A01 T10411118  RH  055%=      5-min Rain = 0
KLO1 120844Z 23003KT M04/M12 A3029 RMK A01 T10401117  RH  055%=      5-min Rain = 0
KLO1 120845Z 23003KT M04/M12 A3029 RMK A01 T10391117  RH  055%=      5-min Rain = 0
KLO1 120846Z 23003KT M04/M12 A3029 RMK A01 T10381117  RH  054%=      5-min Rain = 0
KLO1 120847Z 23003KT M04/M12 A3029 RMK A01 T10371118  RH  054%=      5-min Rain = 0
KLO1 120848Z 23003KT M04/M12 A3029 RMK A01 T10371118  RH  053%=      5-min Rain = 0
KLO1 120849Z 23004KT M04/M12 A3029 RMK A01 T10371119  RH  053%=      5-min Rain = 0
KLO1 120850Z 22004KT M04/M12 A3029 RMK A01 T10371119  RH  053%=      5-min Rain = 0
KLO1 120851Z 22004KT M04/M12 A3029 RMK A01 T10381121  RH  053%=      5-min Rain = 0
KLO1 120852Z 22004KT M04/M12 A3029 RMK A01 T10391122  RH  053%=      5-min Rain = 0
KLO1 120853Z 22004KT M04/M12 A3029 RMK A01 T10401122  RH  053%=      5-min Rain = 0
KLO1 120854Z 22003KT M04/M12 A3029 RMK A01 T10421124  RH  053%=      5-min Rain = 0
KLO1 120855Z 22003KT M04/M13 A3029 RMK A01 T10431126  RH  053%=      5-min Rain = 0
KLO1 120856Z 22003KT M05/M13 A3029 RMK A01 T10451126  RH  053%=      5-min Rain = 0
KLO1 120857Z 22004KT M05/M13 A3029 RMK A01 T10461126  RH  054%=      5-min Rain = 0
KLO1 120858Z 22004KT M05/M13 A3029 RMK A01 T10461125  RH  054%=      5-min Rain = 0
KLO1 120859Z 22004KT M05/M13 A3029 RMK A01 T10461125  RH  054%=      5-min Rain = 0
KLO1 120900Z 22004KT M05/M13 A3029 RMK A01 T10461126  RH  054%=      5-min Rain = 0
KLO1 120901Z 22004KT M05/M13 A3029 RMK A01 T10471127  RH  054%=      5-min Rain = 0
KLO1 120902Z 22004KT M05/M13 A3029 RMK A01 T10481127  RH  054%=      5-min Rain = 0
KLO1 120903Z 22003KT M05/M13 A3029 RMK A01 T10481126  RH  054%=      5-min Rain = 0
KLO1 120904Z 22003KT M05/M13 A3029 RMK A01 T10481125  RH  055%=      5-min Rain = 0
KLO1 120905Z 22002KT M05/M13 A3029 RMK A01 T10481126  RH  054%=      5-min Rain = 0
KLO1 120906Z 22001KT M05/M13 A3029 RMK A01 T10491127  RH  054%=      5-min Rain = 0
KLO1 120907Z 22002KT M05/M13 A3029 RMK A01 T10491127  RH  054%=      5-min Rain = 0
KLO1 120908Z 22002KT M05/M13 A3029 RMK A01 T10491127  RH  055%=      5-min Rain = 0
KLO1 120909Z 21002KT M05/M13 A3029 RMK A01 T10491127  RH  055%=      5-min Rain = 0
KLO1 120910Z 21002KT M05/M13 A3029 RMK A01 T10491126  RH  055%=      5-min Rain = 0
KLO1 120911Z 21002KT M05/M13 A3029 RMK A01 T10481125  RH  055%=      5-min Rain = 0
KLO1 120912Z 20001KT M05/M13 A3029 RMK A01 T10481125  RH  055%=      5-min Rain = 0
KLO1 120913Z 07004KT M05/M13 A3029 RMK A01 T10491128  RH  054%=      5-min Rain = 0
KLO1 120914Z 10001KT M05/M13 A3029 RMK A01 T10531130  RH  054%=      5-min Rain = 0
KLO1 120915Z 10004KT M05/M13 A3029 RMK A01 T10531129  RH  055%=      5-min Rain = 0
KLO1 120916Z 08005KT M05/M13 A3029 RMK A01 T10511127  RH  055%=      5-min Rain = 0
KLO1 120917Z 08004KT M05/M13 A3029 RMK A01 T10511127  RH  055%=      5-min Rain = 0
KLO1 120918Z 07004KT M05/M12 A3029 RMK A01 T10511123  RH  057%=      5-min Rain = 0
KLO1 120919Z 07005KT M05/M12 A3029 RMK A01 T10511120  RH  058%=      5-min Rain = 0
KLO1 120920Z 08005KT M05/M12 A3029 RMK A01 T10501118  RH  059%=      5-min Rain = 0
KLO1 120921Z 07005KT M05/M12 A3029 RMK A01 T10511118  RH  059%=      5-min Rain = 0
KLO1 120922Z 07003KT M05/M12 A3029 RMK A01 T10511118  RH  059%=      5-min Rain = 0
KLO1 120923Z 07004KT M05/M12 A3029 RMK A01 T10511118  RH  059%=      5-min Rain = 0
KLO1 120924Z 07004KT M05/M12 A3029 RMK A01 T10511118  RH  059%=      5-min Rain = 0
KLO1 120925Z 07004KT M05/M12 A3029 RMK A01 T10511118  RH  059%=      5-min Rain = 0
KLO1 120926Z 09005KT M05/M12 A3029 RMK A01 T10511117  RH  059%=      5-min Rain = 0
KLO1 120927Z 10004KT M05/M12 A3029 RMK A01 T10511117  RH  060%=      5-min Rain = 0
KLO1 120928Z 10004KT M05/M12 A3029 RMK A01 T10511117  RH  060%=      5-min Rain = 0
KLO1 120929Z 10003KT M05/M12 A303 RMK A01 T10511117  RH  060%=      5-min Rain = 0
KLO1 120930Z 08003KT M05/M12 A303 RMK A01 T10511118  RH  059%=      5-min Rain = 0
KLO1 120931Z 08003KT M05/M12 A303 RMK A01 T10521118  RH  059%=      5-min Rain = 0
KLO1 120932Z 08004KT M05/M12 A3029 RMK A01 T10521118  RH  060%=      5-min Rain = 0
KLO1 120933Z 08004KT M05/M12 A3029 RMK A01 T10521117  RH  060%=      5-min Rain = 0
KLO1 120934Z 08004KT M05/M12 A3029 RMK A01 T10531118  RH  060%=      5-min Rain = 0
KLO1 120935Z 08003KT M05/M12 A3029 RMK A01 T10531119  RH  060%=      5-min Rain = 0
KLO1 120936Z 08003KT M05/M12 A3029 RMK A01 T10541119  RH  060%=      5-min Rain = 0
KLO1 120937Z 09003KT M05/M12 A3029 RMK A01 T10541119  RH  060%=      5-min Rain = 0
KLO1 120938Z 10003KT M05/M12 A3029 RMK A01 T10541120  RH  060%=      5-min Rain = 0
KLO1 120939Z 11002KT M06/M12 A303 RMK A01 T10551119  RH  060%=      5-min Rain = 0
KLO1 120940Z 11003KT M06/M12 A303 RMK A01 T10551119  RH  061%=      5-min Rain = 0
KLO1 120941Z 11003KT M05/M12 A303 RMK A01 T10541118  RH  061%=      5-min Rain = 0
KLO1 120942Z 11003KT M05/M12 A303 RMK A01 T10541119  RH  060%=      5-min Rain = 0
KLO1 120943Z 12003KT M05/M12 A303 RMK A01 T10541120  RH  059%=      5-min Rain = 0
KLO1 120944Z 10004KT M05/M12 A303 RMK A01 T10541121  RH  059%=      5-min Rain = 0
KLO1 120945Z 10004KT M05/M12 A303 RMK A01 T10541121  RH  059%=      5-min Rain = 0
KLO1 120946Z 10004KT M05/M12 A303 RMK A01 T10541120  RH  060%=      5-min Rain = 0
KLO1 120947Z 10003KT M05/M12 A303 RMK A01 T10541121  RH  059%=      5-min Rain = 0
KLO1 120948Z 10002KT M05/M12 A303 RMK A01 T10541122  RH  059%=      5-min Rain = 0
KLO1 120949Z 11002KT M05/M12 A303 RMK A01 T10531122  RH  059%=      5-min Rain = 0
KLO1 120950Z 11002KT M05/M12 A303 RMK A01 T10541122  RH  058%=      5-min Rain = 0
KLO1 120951Z 11001KT M05/M12 A303 RMK A01 T10541123  RH  058%=      5-min Rain = 0
KLO1 120952Z 12001KT M05/M12 A303 RMK A01 T10541123  RH  058%=      5-min Rain = 0
KLO1 120953Z 12001KT M05/M12 A303 RMK A01 T10541123  RH  058%=      5-min Rain = 0
KLO1 120954Z 12001KT M05/M12 A303 RMK A01 T10541122  RH  058%=      5-min Rain = 0
KLO1 120955Z 12000KT M05/M12 A303 RMK A01 T10541123  RH  058%=      5-min Rain = 0
KLO1 120956Z 00000KT M05/M12 A303 RMK A01 T10541123  RH  058%=      5-min Rain = 0
KLO1 120957Z 00000KT M05/M12 A303 RMK A01 T10541123  RH  058%=      5-min Rain = 0
KLO1 120958Z 00000KT M05/M12 A303 RMK A01 T10541123  RH  058%=      5-min Rain = 0
KLO1 120959Z 15000KT M05/M12 A3031 RMK A01 T10541123  RH  059%=      5-min Rain = 0
KLO1 121000Z 16002KT M05/M12 A3031 RMK A01 T10541122  RH  059%=      5-min Rain = 0
KLO1 121001Z 16002KT M05/M12 A303 RMK A01 T10531121  RH  059%=      5-min Rain = 0
KLO1 121002Z 16002KT M05/M12 A303 RMK A01 T10521122  RH  058%=      5-min Rain = 0
KLO1 121003Z 16002KT M05/M12 A303 RMK A01 T10521123  RH  057%=      5-min Rain = 0
KLO1 121004Z 15002KT M05/M13 A303 RMK A01 T10521125  RH  057%=      5-min Rain = 0
KLO1 121005Z 15002KT M05/M13 A303 RMK A01 T10531126  RH  057%=      5-min Rain = 0
KLO1 121006Z 16001KT M05/M13 A303 RMK A01 T10541126  RH  057%=      5-min Rain = 0
KLO1 121007Z 16001KT M06/M13 A303 RMK A01 T10551128  RH  057%=      5-min Rain = 0
KLO1 121008Z 17001KT M06/M13 A303 RMK A01 T10551128  RH  057%=      5-min Rain = 0
KLO1 121009Z 18001KT M06/M13 A303 RMK A01 T10561128  RH  057%=      5-min Rain = 0
KLO1 121010Z 18000KT M06/M13 A303 RMK A01 T10571128  RH  057%=      5-min Rain = 0
KLO1 121011Z 16002KT M06/M13 A303 RMK A01 T10581128  RH  058%=      5-min Rain = 0
KLO1 121012Z 16002KT M06/M13 A303 RMK A01 T10571126  RH  058%=      5-min Rain = 0
KLO1 121013Z 17002KT M06/M13 A303 RMK A01 T10571126  RH  058%=      5-min Rain = 0
KLO1 121014Z 18002KT M06/M13 A303 RMK A01 T10561125  RH  058%=      5-min Rain = 0
KLO1 121015Z 18002KT M06/M13 A303 RMK A01 T10561126  RH  058%=      5-min Rain = 0
KLO1 121016Z 19002KT M06/M13 A303 RMK A01 T10571127  RH  058%=      5-min Rain = 0
KLO1 121017Z 19002KT M06/M13 A303 RMK A01 T10591128  RH  058%=      5-min Rain = 0
KLO1 121018Z 18002KT M06/M13 A303 RMK A01 T10591128  RH  058%=      5-min Rain = 0
KLO1 121019Z 18002KT M06/M13 A303 RMK A01 T10591127  RH  059%=      5-min Rain = 0
KLO1 121020Z 18003KT M06/M13 A303 RMK A01 T10581126  RH  059%=      5-min Rain = 0
KLO1 121021Z 18003KT M06/M13 A303 RMK A01 T10581125  RH  059%=      5-min Rain = 0
KLO1 121022Z 18003KT M06/M13 A303 RMK A01 T10571125  RH  059%=      5-min Rain = 0
KLO1 121023Z 18003KT M06/M13 A303 RMK A01 T10561125  RH  059%=      5-min Rain = 0
KLO1 121024Z 18003KT M06/M13 A3029 RMK A01 T10561125  RH  058%=      5-min Rain = 0
KLO1 121025Z 19003KT M06/M13 A3029 RMK A01 T10561125  RH  058%=      5-min Rain = 0
KLO1 121026Z 19003KT M06/M13 A303 RMK A01 T10561125  RH  058%=      5-min Rain = 0
KLO1 121027Z 18004KT M06/M13 A303 RMK A01 T10561125  RH  058%=      5-min Rain = 0
KLO1 121028Z 18004KT M06/M13 A303 RMK A01 T10561125  RH  058%=      5-min Rain = 0
KLO1 121029Z 18004KT M06/M13 A303 RMK A01 T10561125  RH  058%=      5-min Rain = 0
KLO1 121030Z 17005KT M06/M13 A303 RMK A01 T10561127  RH  058%=      5-min Rain = 0
KLO1 121031Z 17005KT M06/M13 A3029 RMK A01 T10571128  RH  058%=      5-min Rain = 0
KLO1 121032Z 16005KT M06/M13 A3029 RMK A01 T10581129  RH  058%=      5-min Rain = 0
KLO1 121033Z 16005KT M06/M13 A3029 RMK A01 T10591129  RH  058%=      5-min Rain = 0
KLO1 121034Z 16005KT M06/M13 A3029 RMK A01 T10601128  RH  058%=      5-min Rain = 0
KLO1 121035Z 15005KT M06/M12 A3029 RMK A01 T10561121  RH  060%=      5-min Rain = 0
KLO1 121036Z 15005KT M05/M12 A3029 RMK A01 T10541122  RH  059%=      5-min Rain = 0
KLO1 121037Z 14004KT M06/M13 A3029 RMK A01 T10551125  RH  058%=      5-min Rain = 0
KLO1 121038Z 14004KT M06/M13 A3029 RMK A01 T10551126  RH  057%=      5-min Rain = 0
KLO1 121039Z 13004KT M06/M13 A3029 RMK A01 T10561127  RH  057%=      5-min Rain = 0
KLO1 121040Z 14004KT M06/M13 A3029 RMK A01 T10561127  RH  057%=      5-min Rain = 0
KLO1 121041Z 14004KT M06/M13 A3029 RMK A01 T10561127  RH  057%=      5-min Rain = 0
KLO1 121042Z 16004KT M06/M13 A3029 RMK A01 T10561127  RH  058%=      5-min Rain = 0
KLO1 121043Z 18004KT M06/M13 A3029 RMK A01 T10561126  RH  058%=      5-min Rain = 0
KLO1 121044Z 18004KT M06/M13 A3029 RMK A01 T10551125  RH  058%=      5-min Rain = 0
KLO1 121045Z 18005KT M06/M13 A3029 RMK A01 T10561125  RH  058%=      5-min Rain = 0
KLO1 121046Z 17005KT M06/M13 A3029 RMK A01 T10571126  RH  058%=      5-min Rain = 0
KLO1 121047Z 16006KT M06/M13 A3029 RMK A01 T10571125  RH  059%=      5-min Rain = 0
KLO1 121048Z 16005KT M06/M13 A3029 RMK A01 T10571125  RH  059%=      5-min Rain = 0
KLO1 121049Z 15005KT M06/M12 A3029 RMK A01 T10571124  RH  059%=      5-min Rain = 0
KLO1 121050Z 15005KT M06/M12 A3028 RMK A01 T10571124  RH  059%=      5-min Rain = 0
KLO1 121051Z 15005KT M06/M12 A3028 RMK A01 T10571124  RH  059%=      5-min Rain = 0
KLO1 121052Z 15005KT M06/M12 A3028 RMK A01 T10571123  RH  059%=      5-min Rain = 0
KLO1 121053Z 16005KT M06/M12 A3028 RMK A01 T10561123  RH  059%=      5-min Rain = 0
KLO1 121054Z 15006KT M06/M12 A3028 RMK A01 T10551122  RH  059%=      5-min Rain = 0
KLO1 121055Z 15006KT M06/M12 A3028 RMK A01 T10551122  RH  059%=      5-min Rain = 0
KLO1 121056Z 15006KT M06/M12 A3028 RMK A01 T10551121  RH  059%=      5-min Rain = 0
KLO1 121057Z 15006KT M05/M12 A3028 RMK A01 T10541121  RH  059%=      5-min Rain = 0
KLO1 121058Z 15007KT M05/M12 A3028 RMK A01 T10541121  RH  059%=      5-min Rain = 0
KLO1 121059Z 14006KT M05/M12 A3028 RMK A01 T10541121  RH  059%=      5-min Rain = 0
KLO1 121100Z 13006KT M05/M12 A3028 RMK A01 T10541121  RH  059%=      5-min Rain = 0
KLO1 121101Z 13006KT M05/M12 A3028 RMK A01 T10541121  RH  059%=      5-min Rain = 0
KLO1 121102Z 13006KT M05/M12 A3028 RMK A01 T10541121  RH  059%=      5-min Rain = 0
KLO1 121103Z 13006KT M05/M12 A3028 RMK A01 T10541123  RH  059%=      5-min Rain = 0
KLO1 121104Z 14005KT M06/M12 A3028 RMK A01 T10551124  RH  059%=      5-min Rain = 0
KLO1 121105Z 14005KT M06/M12 A3028 RMK A01 T10561123  RH  059%=      5-min Rain = 0
KLO1 121106Z 15006KT M06/M12 A3028 RMK A01 T10551123  RH  059%=      5-min Rain = 0
KLO1 121107Z 15005KT M06/M12 A3028 RMK A01 T10551121  RH  059%=      5-min Rain = 0
KLO1 121108Z 15005KT M05/M12 A3028 RMK A01 T10541121  RH  059%=      5-min Rain = 0
KLO1 121109Z 14005KT M05/M12 A3028 RMK A01 T10541121  RH  059%=      5-min Rain = 0
KLO1 121110Z 14005KT M05/M12 A3028 RMK A01 T10541121  RH  059%=      5-min Rain = 0
KLO1 121111Z 14005KT M05/M12 A3028 RMK A01 T10541121  RH  059%=      5-min Rain = 0
KLO1 121112Z 14005KT M05/M12 A3028 RMK A01 T10541121  RH  059%=      5-min Rain = 0
KLO1 121113Z 14005KT M05/M12 A3028 RMK A01 T10541121  RH  059%=      5-min Rain = 0
KLO1 121114Z 14005KT M05/M12 A3028 RMK A01 T10541122  RH  059%=      5-min Rain = 0
KLO1 121115Z 14005KT M05/M12 A3027 RMK A01 T10541122  RH  059%=      5-min Rain = 0
KLO1 121116Z 15006KT M05/M12 A3027 RMK A01 T10541123  RH  059%=      5-min Rain = 0
KLO1 121117Z 15005KT M06/M12 A3027 RMK A01 T10551124  RH  058%=      5-min Rain = 0
KLO1 121118Z 15006KT M06/M12 A3027 RMK A01 T10561124  RH  058%=      5-min Rain = 0
KLO1 121119Z 15005KT M06/M13 A3027 RMK A01 T10561125  RH  058%=      5-min Rain = 0
KLO1 121120Z 15005KT M06/M12 A3027 RMK A01 T10561124  RH  059%=      5-min Rain = 0
KLO1 121121Z 15005KT M06/M12 A3027 RMK A01 T10561124  RH  059%=      5-min Rain = 0
KLO1 121122Z 14005KT M06/M12 A3027 RMK A01 T10561123  RH  059%=      5-min Rain = 0
KLO1 121123Z 14005KT M06/M12 A3027 RMK A01 T10561124  RH  059%=      5-min Rain = 0
KLO1 121124Z 14005KT M06/M12 A3027 RMK A01 T10571124  RH  059%=      5-min Rain = 0
KLO1 121125Z 15005KT M06/M12 A3027 RMK A01 T10571124  RH  059%=      5-min Rain = 0
KLO1 121126Z 15005KT M06/M12 A3027 RMK A01 T10571124  RH  059%=      5-min Rain = 0
KLO1 121127Z 15005KT M06/M12 A3027 RMK A01 T10571124  RH  059%=      5-min Rain = 0
KLO1 121128Z 16005KT M06/M13 A3027 RMK A01 T10571125  RH  059%=      5-min Rain = 0
KLO1 121129Z 16004KT M06/M13 A3028 RMK A01 T10571125  RH  059%=      5-min Rain = 0
KLO1 121130Z 16004KT M06/M12 A3028 RMK A01 T10571124  RH  059%=      5-min Rain = 0
KLO1 121131Z 17003KT M06/M12 A3028 RMK A01 T10571124  RH  059%=      5-min Rain = 0
KLO1 121132Z 17003KT M06/M12 A3028 RMK A01 T10571124  RH  059%=      5-min Rain = 0
KLO1 121133Z 17002KT M06/M12 A3028 RMK A01 T10581124  RH  059%=      5-min Rain = 0
KLO1 121134Z 17001KT M06/M12 A3028 RMK A01 T10581124  RH  060%=      5-min Rain = 0
KLO1 121135Z 16001KT M06/M12 A3028 RMK A01 T10581123  RH  060%=      5-min Rain = 0
KLO1 121136Z 17002KT M06/M12 A3028 RMK A01 T10581123  RH  060%=      5-min Rain = 0
KLO1 121137Z 17002KT M06/M12 A3028 RMK A01 T10581123  RH  060%=      5-min Rain = 0
KLO1 121138Z 17002KT M06/M12 A3028 RMK A01 T10591123  RH  061%=      5-min Rain = 0
KLO1 121139Z 17002KT M06/M12 A3028 RMK A01 T10591122  RH  061%=      5-min Rain = 0
KLO1 121140Z 18002KT M06/M12 A3028 RMK A01 T10591122  RH  061%=      5-min Rain = 0
KLO1 121141Z 18002KT M06/M12 A3028 RMK A01 T10591121  RH  061%=      5-min Rain = 0
KLO1 121142Z 19002KT M06/M12 A3028 RMK A01 T10591120  RH  062%=      5-min Rain = 0
KLO1 121143Z 19002KT M06/M12 A3028 RMK A01 T10581119  RH  062%=      5-min Rain = 0
KLO1 121144Z 19002KT M06/M12 A3028 RMK A01 T10571118  RH  062%=      5-min Rain = 0
KLO1 121145Z 18001KT M06/M12 A3028 RMK A01 T10571117  RH  062%=      5-min Rain = 0
KLO1 121146Z 16002KT M06/M12 A3028 RMK A01 T10561117  RH  062%=      5-min Rain = 0
KLO1 121147Z 16002KT M06/M12 A3028 RMK A01 T10561117  RH  062%=      5-min Rain = 0
KLO1 121148Z 16002KT M06/M12 A3028 RMK A01 T10561118  RH  062%=      5-min Rain = 0
KLO1 121149Z 16002KT M06/M12 A3028 RMK A01 T10561118  RH  061%=      5-min Rain = 0
KLO1 121150Z 17002KT M06/M12 A3028 RMK A01 T10561119  RH  061%=      5-min Rain = 0
KLO1 121151Z 18002KT M06/M12 A3028 RMK A01 T10551119  RH  061%=      5-min Rain = 0
KLO1 121152Z 19002KT M06/M12 A3028 RMK A01 T10561119  RH  061%=      5-min Rain = 0
KLO1 121153Z 18002KT M06/M12 A3028 RMK A01 T10561118  RH  061%=      5-min Rain = 0
KLO1 121154Z 18002KT M06/M12 A3028 RMK A01 T10551118  RH  061%=      5-min Rain = 0
KLO1 121155Z 17003KT M06/M12 A3028 RMK A01 T10551118  RH  061%=      5-min Rain = 0
KLO1 121156Z 17003KT M06/M12 A3028 RMK A01 T10561118  RH  061%=      5-min Rain = 0
KLO1 121157Z 17002KT M06/M12 A3028 RMK A01 T10561119  RH  061%=      5-min Rain = 0
KLO1 121158Z 18002KT M06/M12 A3028 RMK A01 T10571120  RH  061%=      5-min Rain = 0
KLO1 121159Z 18002KT M06/M12 A3028 RMK A01 T10571121  RH  061%=      5-min Rain = 0
KLO1 121200Z 18002KT M06/M12 A3028 RMK A01 T10581121  RH  061%=      5-min Rain = 0
KLO1 121201Z 17002KT M06/M12 A3028 RMK A01 T10581120  RH  061%=      5-min Rain = 0
KLO1 121202Z 17001KT M06/M12 A3028 RMK A01 T10581120  RH  062%=      5-min Rain = 0
KLO1 121203Z 16001KT M06/M12 A3029 RMK A01 T10581120  RH  062%=      5-min Rain = 0
KLO1 121204Z 16001KT M06/M12 A3029 RMK A01 T10581120  RH  061%=      5-min Rain = 0
KLO1 121205Z 16000KT M06/M12 A3029 RMK A01 T10581120  RH  061%=      5-min Rain = 0
KLO1 121206Z 00000KT M06/M12 A3029 RMK A01 T10581120  RH  061%=      5-min Rain = 0
KLO1 121207Z 00000KT M06/M12 A3029 RMK A01 T10581120  RH  061%=      5-min Rain = 0
KLO1 121208Z 00000KT M06/M12 A3029 RMK A01 T10591121  RH  062%=      5-min Rain = 0
KLO1 121209Z 00000KT M06/M12 A3029 RMK A01 T10591120  RH  062%=      5-min Rain = 0
KLO1 121210Z 14000KT M06/M12 A3029 RMK A01 T10591120  RH  062%=      5-min Rain = 0
KLO1 121211Z 14001KT M06/M12 A3028 RMK A01 T10591120  RH  062%=      5-min Rain = 0
KLO1 121212Z 14002KT M06/M12 A3028 RMK A01 T10591121  RH  062%=      5-min Rain = 0
KLO1 121213Z 15002KT M06/M12 A3028 RMK A01 T10591121  RH  062%=      5-min Rain = 0
KLO1 121214Z 16002KT M06/M12 A3028 RMK A01 T10601121  RH  062%=      5-min Rain = 0
KLO1 121215Z 15001KT M06/M12 A3029 RMK A01 T10601121  RH  062%=      5-min Rain = 0
KLO1 121216Z 15001KT M06/M12 A3029 RMK A01 T10601122  RH  061%=      5-min Rain = 0
KLO1 121217Z 15001KT M06/M12 A3029 RMK A01 T10601123  RH  061%=      5-min Rain = 0
KLO1 121218Z 15002KT M06/M12 A3029 RMK A01 T10611124  RH  061%=      5-min Rain = 0
KLO1 121219Z 16002KT M06/M12 A3029 RMK A01 T10611124  RH  061%=      5-min Rain = 0
KLO1 121220Z 16002KT M06/M12 A3029 RMK A01 T10611124  RH  061%=      5-min Rain = 0
KLO1 121221Z 16002KT M06/M13 A3029 RMK A01 T10611125  RH  061%=      5-min Rain = 0
KLO1 121222Z 16003KT M06/M13 A3029 RMK A01 T10621126  RH  060%=      5-min Rain = 0
KLO1 121223Z 16003KT M06/M13 A3029 RMK A01 T10631127  RH  060%=      5-min Rain = 0
KLO1 121224Z 16003KT M06/M13 A3029 RMK A01 T10631128  RH  060%=      5-min Rain = 0
KLO1 121225Z 16003KT M06/M13 A3029 RMK A01 T10641127  RH  061%=      5-min Rain = 0
KLO1 121226Z 16003KT M06/M13 A3029 RMK A01 T10641127  RH  061%=      5-min Rain = 0
KLO1 121227Z 16003KT M06/M13 A3029 RMK A01 T10641126  RH  061%=      5-min Rain = 0
KLO1 121228Z 16002KT M06/M13 A3029 RMK A01 T10641126  RH  061%=      5-min Rain = 0
KLO1 121229Z 17002KT M06/M13 A3029 RMK A01 T10641127  RH  061%=      5-min Rain = 0
KLO1 121230Z 17002KT M07/M13 A3029 RMK A01 T10651128  RH  061%=      5-min Rain = 0
KLO1 121231Z 17002KT M07/M13 A3029 RMK A01 T10661129  RH  061%=      5-min Rain = 0
KLO1 121232Z 17002KT M07/M13 A3029 RMK A01 T10661129  RH  061%=      5-min Rain = 0
KLO1 121233Z 16002KT M07/M13 A3029 RMK A01 T10651126  RH  062%=      5-min Rain = 0
KLO1 121234Z 16002KT M06/M13 A3029 RMK A01 T10641125  RH  062%=      5-min Rain = 0
KLO1 121235Z 15002KT M06/M13 A3029 RMK A01 T10641126  RH  062%=      5-min Rain = 0
KLO1 121236Z 15002KT M06/M13 A3029 RMK A01 T10641126  RH  061%=      5-min Rain = 0
KLO1 121237Z 16002KT M06/M13 A3029 RMK A01 T10641126  RH  062%=      5-min Rain = 0
KLO1 121238Z 16002KT M06/M12 A3029 RMK A01 T10641124  RH  062%=      5-min Rain = 0
KLO1 121239Z 17002KT M06/M12 A3029 RMK A01 T10631123  RH  063%=      5-min Rain = 0
KLO1 121240Z 17003KT M06/M12 A3029 RMK A01 T10621122  RH  063%=      5-min Rain = 0
KLO1 121241Z 17003KT M06/M12 A3029 RMK A01 T10621123  RH  062%=      5-min Rain = 0
KLO1 121242Z 17002KT M06/M12 A3029 RMK A01 T10621124  RH  062%=      5-min Rain = 0
KLO1 121243Z 17002KT M06/M12 A3029 RMK A01 T10621123  RH  062%=      5-min Rain = 0
KLO1 121244Z 17002KT M06/M12 A3029 RMK A01 T10621122  RH  062%=      5-min Rain = 0
KLO1 121245Z 17002KT M06/M12 A3029 RMK A01 T10611121  RH  063%=      5-min Rain = 0
KLO1 121246Z 17002KT M06/M12 A3029 RMK A01 T10611121  RH  062%=      5-min Rain = 0
KLO1 121247Z 17001KT M06/M12 A3029 RMK A01 T10611122  RH  062%=      5-min Rain = 0
KLO1 121248Z 16001KT M06/M12 A3029 RMK A01 T10611122  RH  062%=      5-min Rain = 0
KLO1 121249Z 15001KT M06/M12 A3029 RMK A01 T10611122  RH  062%=      5-min Rain = 0
KLO1 121250Z 15001KT M06/M12 A3029 RMK A01 T10611121  RH  063%=      5-min Rain = 0
KLO1 121251Z 15001KT M06/M12 A3029 RMK A01 T10611121  RH  063%=      5-min Rain = 0
KLO1 121252Z 15001KT M06/M12 A3029 RMK A01 T10611121  RH  063%=      5-min Rain = 0
KLO1 121253Z 15002KT M06/M12 A3029 RMK A01 T10611121  RH  063%=      5-min Rain = 0
KLO1 121254Z 15002KT M06/M12 A3029 RMK A01 T10611122  RH  062%=      5-min Rain = 0
KLO1 121255Z 15002KT M06/M12 A3029 RMK A01 T10621124  RH  062%=      5-min Rain = 0
KLO1 121256Z 15002KT M06/M13 A3029 RMK A01 T10631127  RH  061%=      5-min Rain = 0
KLO1 121257Z 15001KT M07/M13 A3029 RMK A01 T10651128  RH  061%=      5-min Rain = 0
KLO1 121258Z 15001KT M07/M13 A3029 RMK A01 T10651128  RH  061%=      5-min Rain = 0
KLO1 121259Z 14002KT M07/M13 A3029 RMK A01 T10651126  RH  062%=      5-min Rain = 0
KLO1 121300Z 12002KT M06/M12 A3029 RMK A01 T10641123  RH  063%=      5-min Rain = 0
KLO1 121301Z 13002KT M06/M12 A3029 RMK A01 T10621119  RH  064%=      5-min Rain = 0
KLO1 121302Z 13002KT M06/M12 A3029 RMK A01 T10601117  RH  064%=      5-min Rain = 0
KLO1 121303Z 12002KT M06/M12 A3029 RMK A01 T10601119  RH  063%=      5-min Rain = 0
KLO1 121304Z 11002KT M06/M12 A3029 RMK A01 T10611122  RH  062%=      5-min Rain = 0
KLO1 121305Z 11002KT M06/M12 A3029 RMK A01 T10621124  RH  061%=      5-min Rain = 0
KLO1 121306Z 11003KT M06/M12 A3029 RMK A01 T10631124  RH  062%=      5-min Rain = 0
KLO1 121307Z 11003KT M06/M12 A3029 RMK A01 T10631124  RH  062%=      5-min Rain = 0
KLO1 121308Z 12003KT M06/M13 A3029 RMK A01 T10641125  RH  062%=      5-min Rain = 0
KLO1 121309Z 11003KT M07/M13 A3029 RMK A01 T10651126  RH  062%=      5-min Rain = 0
KLO1 121310Z 12003KT M07/M13 A3029 RMK A01 T10651126  RH  062%=      5-min Rain = 0
KLO1 121311Z 12003KT M07/M13 A3029 RMK A01 T10661125  RH  063%=      5-min Rain = 0
KLO1 121312Z 11003KT M07/M12 A3029 RMK A01 T10651124  RH  063%=      5-min Rain = 0
KLO1 121313Z 10003KT M07/M13 A3029 RMK A01 T10661125  RH  063%=      5-min Rain = 0
KLO1 121314Z 10003KT M07/M13 A3029 RMK A01 T10661125  RH  063%=      5-min Rain = 0
KLO1 121315Z 10003KT M07/M12 A3029 RMK A01 T10661124  RH  064%=      5-min Rain = 0
KLO1 121316Z 09002KT M07/M12 A3029 RMK A01 T10661123  RH  064%=      5-min Rain = 0
KLO1 121317Z 09003KT M07/M12 A3029 RMK A01 T10661123  RH  064%=      5-min Rain = 0
KLO1 121318Z 09003KT M07/M12 A3029 RMK A01 T10661122  RH  065%=      5-min Rain = 0
KLO1 121319Z 10003KT M07/M12 A3029 RMK A01 T10661121  RH  065%=      5-min Rain = 0
KLO1 121320Z 10004KT M07/M12 A3029 RMK A01 T10661120  RH  066%=      5-min Rain = 0
KLO1 121321Z 10004KT M07/M12 A3029 RMK A01 T10661119  RH  066%=      5-min Rain = 0
KLO1 121322Z 10004KT M07/M12 A3029 RMK A01 T10661118  RH  067%=      5-min Rain = 0
KLO1 121323Z 10004KT M07/M12 A3029 RMK A01 T10661116  RH  068%=      5-min Rain = 0
KLO1 121324Z 10004KT M07/M11 A303 RMK A01 T10661114  RH  069%=      5-min Rain = 0
KLO1 121325Z 10004KT M07/M11 A303 RMK A01 T10661112  RH  070%=      5-min Rain = 0
KLO1 121326Z 10005KT M07/M11 A3029 RMK A01 T10651110  RH  070%=      5-min Rain = 0
KLO1 121327Z 10004KT M06/M11 A3029 RMK A01 T10641110  RH  070%=      5-min Rain = 0
KLO1 121328Z 11005KT M06/M11 A3029 RMK A01 T10641110  RH  070%=      5-min Rain = 0
KLO1 121329Z 11004KT M06/M11 A3029 RMK A01 T10641112  RH  069%=      5-min Rain = 0
KLO1 121330Z 11005KT M07/M11 A3029 RMK A01 T10651113  RH  069%=      5-min Rain = 0
KLO1 121331Z 11004KT M06/M11 A3029 RMK A01 T10641113  RH  068%=      5-min Rain = 0
KLO1 121332Z 11004KT M07/M11 A3029 RMK A01 T10651114  RH  068%=      5-min Rain = 0
KLO1 121333Z 10004KT M07/M11 A3029 RMK A01 T10651114  RH  068%=      5-min Rain = 0
KLO1 121334Z 10004KT M07/M12 A3029 RMK A01 T10651115  RH  068%=      5-min Rain = 0
KLO1 121335Z 10004KT M07/M11 A3029 RMK A01 T10651114  RH  068%=      5-min Rain = 0
KLO1 121336Z 10005KT M07/M11 A3029 RMK A01 T10651114  RH  068%=      5-min Rain = 0
KLO1 121337Z 09005KT M07/M11 A3029 RMK A01 T10651113  RH  069%=      5-min Rain = 0
KLO1 121338Z 09005KT M06/M11 A3029 RMK A01 T10641112  RH  069%=      5-min Rain = 0
KLO1 121339Z 09005KT M06/M11 A3029 RMK A01 T10621110  RH  069%=      5-min Rain = 0
KLO1 121340Z 09005KT M06/M11 A3029 RMK A01 T10611110  RH  068%=      5-min Rain = 0
KLO1 121341Z 09005KT M06/M11 A3029 RMK A01 T10621112  RH  068%=      5-min Rain = 0
KLO1 121342Z 09005KT M06/M11 A3029 RMK A01 T10631114  RH  067%=      5-min Rain = 0
KLO1 121343Z 09005KT M06/M11 A3029 RMK A01 T10631113  RH  067%=      5-min Rain = 0
KLO1 121344Z 09005KT M06/M11 A3029 RMK A01 T10631113  RH  067%=      5-min Rain = 0
KLO1 121345Z 09005KT M06/M11 A303 RMK A01 T10641114  RH  067%=      5-min Rain = 0
KLO1 121346Z 09005KT M06/M11 A303 RMK A01 T10641114  RH  067%=      5-min Rain = 0
KLO1 121347Z 09004KT M06/M12 A3029 RMK A01 T10641115  RH  067%=      5-min Rain = 0
KLO1 121348Z 09004KT M07/M12 A3029 RMK A01 T10651117  RH  066%=      5-min Rain = 0
KLO1 121349Z 10004KT M07/M12 A3029 RMK A01 T10661119  RH  066%=      5-min Rain = 0
KLO1 121350Z 10004KT M07/M12 A3029 RMK A01 T10671121  RH  065%=      5-min Rain = 0
KLO1 121351Z 10004KT M07/M12 A3029 RMK A01 T10671122  RH  065%=      5-min Rain = 0
KLO1 121352Z 10004KT M07/M12 A3029 RMK A01 T10671120  RH  066%=      5-min Rain = 0
KLO1 121353Z 10004KT M07/M12 A3029 RMK A01 T10671121  RH  066%=      5-min Rain = 0
KLO1 121354Z 10004KT M07/M12 A3029 RMK A01 T10671122  RH  065%=      5-min Rain = 0
KLO1 121355Z 10004KT M07/M12 A3029 RMK A01 T10671120  RH  066%=      5-min Rain = 0
KLO1 121356Z 10004KT M07/M12 A3029 RMK A01 T10671120  RH  066%=      5-min Rain = 0
KLO1 121357Z 10004KT M07/M12 A3029 RMK A01 T10671122  RH  065%=      5-min Rain = 0
KLO1 121358Z 10004KT M07/M12 A3029 RMK A01 T10671122  RH  065%=      5-min Rain = 0
KLO1 121359Z 10004KT M07/M12 A3029 RMK A01 T10661122  RH  065%=      5-min Rain = 0
KLO1 121400Z 10004KT M07/M12 A303 RMK A01 T10661121  RH  065%=      5-min Rain = 0
KLO1 121401Z 10004KT M06/M12 A303 RMK A01 T10641117  RH  066%=      5-min Rain = 0
KLO1 121402Z 10004KT M06/M12 A303 RMK A01 T10631115  RH  066%=      5-min Rain = 0
KLO1 121403Z 10004KT M06/M12 A303 RMK A01 T10621115  RH  066%=      5-min Rain = 0
KLO1 121404Z 10004KT M06/M12 A303 RMK A01 T10621116  RH  066%=      5-min Rain = 0
KLO1 121405Z 10004KT M06/M12 A303 RMK A01 T10611115  RH  066%=      5-min Rain = 0
KLO1 121406Z 10004KT M06/M11 A303 RMK A01 T10601114  RH  065%=      5-min Rain = 0
KLO1 121407Z 11004KT M06/M12 A303 RMK A01 T10591116  RH  064%=      5-min Rain = 0
KLO1 121408Z 11004KT M06/M12 A303 RMK A01 T10591118  RH  063%=      5-min Rain = 0
KLO1 121409Z 11004KT M06/M12 A303 RMK A01 T10601119  RH  063%=      5-min Rain = 0
KLO1 121410Z 11004KT M06/M12 A303 RMK A01 T10591119  RH  063%=      5-min Rain = 0
KLO1 121411Z 11004KT M06/M12 A303 RMK A01 T10591119  RH  063%=      5-min Rain = 0
KLO1 121412Z 11004KT M06/M12 A303 RMK A01 T10591119  RH  062%=      5-min Rain = 0
KLO1 121413Z 12003KT M06/M12 A303 RMK A01 T10581119  RH  062%=      5-min Rain = 0
KLO1 121414Z 12003KT M06/M12 A303 RMK A01 T10571118  RH  062%=      5-min Rain = 0
KLO1 121415Z 12003KT M06/M12 A303 RMK A01 T10561118  RH  062%=      5-min Rain = 0
KLO1 121416Z 12003KT M06/M12 A303 RMK A01 T10561118  RH  061%=      5-min Rain = 0
KLO1 121417Z 13002KT M06/M12 A303 RMK A01 T10551118  RH  061%=      5-min Rain = 0
KLO1 121418Z 13002KT M05/M12 A303 RMK A01 T10541118  RH  061%=      5-min Rain = 0
KLO1 121419Z 13003KT M05/M12 A303 RMK A01 T10531117  RH  061%=      5-min Rain = 0
KLO1 121420Z 13003KT M05/M12 A303 RMK A01 T10521117  RH  061%=      5-min Rain = 0
KLO1 121421Z 14003KT M05/M12 A303 RMK A01 T10521116  RH  061%=      5-min Rain = 0
KLO1 121422Z 14004KT M05/M12 A303 RMK A01 T10511116  RH  060%=      5-min Rain = 0
KLO1 121423Z 14004KT M05/M12 A3029 RMK A01 T10511117  RH  060%=      5-min Rain = 0
KLO1 121424Z 14003KT M05/M12 A3029 RMK A01 T10511117  RH  060%=      5-min Rain = 0
KLO1 121425Z 14003KT M05/M12 A303 RMK A01 T10511116  RH  060%=      5-min Rain = 0
KLO1 121426Z 15002KT M05/M12 A303 RMK A01 T10501116  RH  060%=      5-min Rain = 0
KLO1 121427Z 14002KT M05/M12 A303 RMK A01 T10491116  RH  060%=      5-min Rain = 0
KLO1 121428Z 14002KT M05/M12 A303 RMK A01 T10481115  RH  059%=      5-min Rain = 0
KLO1 121429Z 14002KT M05/M11 A303 RMK A01 T10471114  RH  059%=      5-min Rain = 0
KLO1 121430Z 15002KT M05/M11 A303 RMK A01 T10451114  RH  059%=      5-min Rain = 0
KLO1 121431Z 16002KT M05/M11 A303 RMK A01 T10451113  RH  059%=      5-min Rain = 0
KLO1 121432Z 16002KT M04/M11 A303 RMK A01 T10441112  RH  059%=      5-min Rain = 0
KLO1 121433Z 17002KT M04/M11 A303 RMK A01 T10441112  RH  059%=      5-min Rain = 0
KLO1 121434Z 17001KT M04/M11 A303 RMK A01 T10441112  RH  059%=      5-min Rain = 0
KLO1 121435Z 17001KT M04/M11 A303 RMK A01 T10441111  RH  059%=      5-min Rain = 0
KLO1 121436Z 00000KT M04/M11 A303 RMK A01 T10431110  RH  059%=      5-min Rain = 0
KLO1 121437Z 00000KT M04/M11 A303 RMK A01 T10411108  RH  059%=      5-min Rain = 0
KLO1 121438Z 15000KT M04/M11 A303 RMK A01 T10381107  RH  059%=      5-min Rain = 0
KLO1 121439Z 00000KT M04/M11 A303 RMK A01 T10361106  RH  058%=      5-min Rain = 0
KLO1 121440Z 13000KT M03/M11 A303 RMK A01 T10341105  RH  058%=      5-min Rain = 0
KLO1 121441Z 12000KT M03/M10 A303 RMK A01 T10321104  RH  057%=      5-min Rain = 0
KLO1 121442Z 15000KT M03/M10 A3031 RMK A01 T10291103  RH  057%=      5-min Rain = 0
KLO1 121443Z 00000KT M03/M10 A3031 RMK A01 T10281103  RH  056%=      5-min Rain = 0
KLO1 121444Z 12000KT M03/M10 A3031 RMK A01 T10271104  RH  055%=      5-min Rain = 0
KLO1 121445Z 12000KT M03/M11 A3031 RMK A01 T10271105  RH  055%=      5-min Rain = 0
KLO1 121446Z 13000KT M03/M11 A3031 RMK A01 T10271105  RH  055%=      5-min Rain = 0
KLO1 121447Z 13000KT M03/M11 A3031 RMK A01 T10271106  RH  055%=      5-min Rain = 0
KLO1 121448Z 00000KT M03/M11 A3031 RMK A01 T10281106  RH  055%=      5-min Rain = 0
KLO1 121449Z 00000KT M03/M11 A3031 RMK A01 T10261105  RH  055%=      5-min Rain = 0
KLO1 121450Z 00000KT M03/M10 A3031 RMK A01 T10251104  RH  055%=      5-min Rain = 0
KLO1 121451Z 12000KT M02/M10 A3031 RMK A01 T10231103  RH  054%=      5-min Rain = 0
KLO1 121452Z 13001KT M02/M10 A3031 RMK A01 T10231104  RH  054%=      5-min Rain = 0
KLO1 121453Z 13000KT M02/M10 A3031 RMK A01 T10221104  RH  054%=      5-min Rain = 0
KLO1 121454Z 12001KT M02/M10 A3031 RMK A01 T10211103  RH  053%=      5-min Rain = 0
KLO1 121455Z 13001KT M02/M10 A3031 RMK A01 T10201103  RH  053%=      5-min Rain = 0
KLO1 121456Z 13001KT M02/M10 A3031 RMK A01 T10191103  RH  053%=      5-min Rain = 0
KLO1 121457Z 13001KT M02/M10 A3031 RMK A01 T10181102  RH  053%=      5-min Rain = 0
KLO1 121458Z 12000KT M02/M10 A3031 RMK A01 T10181102  RH  052%=      5-min Rain = 0
KLO1 121459Z 11000KT M02/M10 A3031 RMK A01 T10171102  RH  052%=      5-min Rain = 0
KLO1 121500Z 12000KT M02/M10 A3031 RMK A01 T10161102  RH  052%=      5-min Rain = 0
KLO1 121501Z 13000KT M02/M10 A3031 RMK A01 T10161102  RH  052%=      5-min Rain = 0
KLO1 121502Z 00000KT M02/M10 A3032 RMK A01 T10151101  RH  052%=      5-min Rain = 0
KLO1 121503Z 13000KT M01/M10 A3032 RMK A01 T10141101  RH  052%=      5-min Rain = 0
KLO1 121504Z 11001KT M01/M10 A3032 RMK A01 T10131101  RH  051%=      5-min Rain = 0
KLO1 121505Z 10001KT M01/M10 A3032 RMK A01 T10121100  RH  051%=      5-min Rain = 0
KLO1 121506Z 11002KT M01/M10 A3032 RMK A01 T10121100  RH  051%=      5-min Rain = 0
KLO1 121507Z 12001KT M01/M10 A3032 RMK A01 T10131101  RH  051%=      5-min Rain = 0
KLO1 121508Z 14001KT M01/M10 A3032 RMK A01 T10141101  RH  052%=      5-min Rain = 0
KLO1 121509Z 14000KT M01/M10 A3032 RMK A01 T10131100  RH  052%=      5-min Rain = 0
KLO1 121510Z 13000KT M01/M10 A3032 RMK A01 T10131100  RH  052%=      5-min Rain = 0
KLO1 121511Z 13000KT M01/M10 A3032 RMK A01 T10131101  RH  051%=      5-min Rain = 0
KLO1 121512Z 13001KT M01/M10 A3032 RMK A01 T10131100  RH  052%=      5-min Rain = 0
KLO1 121513Z 13001KT M01/M10 A3032 RMK A01 T10121100  RH  051%=      5-min Rain = 0
KLO1 121514Z 12002KT M01/M10 A3031 RMK A01 T10121100  RH  051%=      5-min Rain = 0
KLO1 121515Z 12002KT M01/M10 A3031 RMK A01 T10121100  RH  051%=      5-min Rain = 0
KLO1 121516Z 12002KT M01/M10 A3031 RMK A01 T10121099  RH  052%=      5-min Rain = 0
KLO1 121517Z 15001KT M01/M10 A3031 RMK A01 T10121099  RH  052%=      5-min Rain = 0
KLO1 121518Z 15002KT M01/M10 A3031 RMK A01 T10101097  RH  052%=      5-min Rain = 0
KLO1 121519Z 15002KT M01/M10 A3031 RMK A01 T10091097  RH  051%=      5-min Rain = 0
KLO1 121520Z 16003KT M01/M10 A3031 RMK A01 T10091097  RH  051%=      5-min Rain = 0
KLO1 121521Z 16003KT M01/M10 A3031 RMK A01 T10091097  RH  051%=      5-min Rain = 0
KLO1 121522Z 15004KT M01/M10 A3031 RMK A01 T10071095  RH  051%=      5-min Rain = 0
KLO1 121523Z 14004KT M01/M09 A3031 RMK A01 T10051094  RH  051%=      5-min Rain = 0
KLO1 121524Z 14003KT M00/M09 A3031 RMK A01 T10041093  RH  051%=      5-min Rain = 0
KLO1 121525Z 14003KT M00/M09 A3031 RMK A01 T10021092  RH  051%=      5-min Rain = 0
KLO1 121526Z 14004KT 00/M09 A3031 RMK A01 T00011091  RH  050%=      5-min Rain = 0
KLO1 121527Z 15004KT 00/M09 A3031 RMK A01 T00021092  RH  050%=      5-min Rain = 0
KLO1 121528Z 15005KT 00/M09 A3031 RMK A01 T00031090  RH  049%=      5-min Rain = 0
KLO1 121529Z 14007KT 01/M09 A303 RMK A01 T00061090  RH  049%=      5-min Rain = 0
KLO1 121530Z 14006KT 01/M09 A303 RMK A01 T00071091  RH  048%=      5-min Rain = 0
KLO1 121531Z 15007KT 01/M09 A303 RMK A01 T00081092  RH  047%=      5-min Rain = 0
KLO1 121532Z 14006KT 01/M09 A303 RMK A01 T00101091  RH  047%=      5-min Rain = 0
KLO1 121533Z 13006KT 01/M09 A303 RMK A01 T00121091  RH  046%=      5-min Rain = 0
KLO1 121534Z 14006KT 01/M09 A303 RMK A01 T00141090  RH  046%=      5-min Rain = 0
KLO1 121535Z 14005KT 02/M09 A303 RMK A01 T00151091  RH  045%=      5-min Rain = 0
KLO1 121536Z 13005KT 02/M09 A303 RMK A01 T00161092  RH  045%=      5-min Rain = 0
KLO1 121537Z 12005KT 02/M09 A303 RMK A01 T00171092  RH  044%=      5-min Rain = 0
KLO1 121538Z 13005KT 02/M09 A303 RMK A01 T00171092  RH  044%=      5-min Rain = 0
KLO1 121539Z 13007KT 02/M09 A303 RMK A01 T00181092  RH  044%=      5-min Rain = 0
KLO1 121540Z 15006KT 02/M09 A303 RMK A01 T00191092  RH  043%=      5-min Rain = 0
KLO1 121541Z 13006KT 02/M09 A303 RMK A01 T00211092  RH  043%=      5-min Rain = 0
KLO1 121542Z 13008KT 02/M09 A303 RMK A01 T00231091  RH  043%=      5-min Rain = 0
KLO1 121543Z 13008KT 02/M09 A303 RMK A01 T00231093  RH  042%=      5-min Rain = 0
KLO1 121544Z 13007KT 02/M09 A303 RMK A01 T00231093  RH  042%=      5-min Rain = 0
KLO1 121545Z 14008KT 02/M09 A303 RMK A01 T00241093  RH  042%=      5-min Rain = 0
KLO1 121546Z 14007KT 02/M09 A303 RMK A01 T00241094  RH  041%=      5-min Rain = 0
KLO1 121547Z 14007KT 02/M10 A303 RMK A01 T00241095  RH  041%=      5-min Rain = 0
KLO1 121548Z 14007KT 03/M10 A303 RMK A01 T00251095  RH  041%=      5-min Rain = 0
KLO1 121549Z 13009KT 03/M10 A303 RMK A01 T00261095  RH  040%=      5-min Rain = 0
KLO1 121550Z 13008KT 03/M10 A303 RMK A01 T00271095  RH  040%=      5-min Rain = 0
KLO1 121551Z 13009KT 03/M10 A303 RMK A01 T00271095  RH  040%=      5-min Rain = 0
KLO1 121552Z 14009KT 03/M10 A303 RMK A01 T00281096  RH  040%=      5-min Rain = 0
KLO1 121553Z 14008KT 03/M10 A303 RMK A01 T00281096  RH  040%=      5-min Rain = 0
KLO1 121554Z 14008KT 03/M10 A303 RMK A01 T00291096  RH  039%=      5-min Rain = 0
KLO1 121555Z 14008KT 03/M10 A303 RMK A01 T00311096  RH  039%=      5-min Rain = 0
KLO1 121556Z 13007KT 03/M10 A303 RMK A01 T00311097  RH  038%=      5-min Rain = 0
KLO1 121557Z 13008KT 03/M10 A303 RMK A01 T00331095  RH  039%=      5-min Rain = 0
KLO1 121558Z 13009KT 03/M10 A303 RMK A01 T00341095  RH  038%=      5-min Rain = 0
KLO1 121559Z 14009KT 04/M10 A303 RMK A01 T00351096  RH  038%=      5-min Rain = 0
KLO1 121600Z 13010KT 04/M10 A303 RMK A01 T00351097  RH  037%=      5-min Rain = 0
KLO1 121601Z 14009KT 04/M10 A303 RMK A01 T00351098  RH  037%=      5-min Rain = 0
KLO1 121602Z 13009KT 04/M10 A303 RMK A01 T00351098  RH  037%=      5-min Rain = 0
KLO1 121603Z 13008KT 04/M10 A303 RMK A01 T00351098  RH  037%=      5-min Rain = 0
KLO1 121604Z 13009KT 04/M10 A303 RMK A01 T00371096  RH  037%=      5-min Rain = 0
KLO1 121605Z 12009KT 04/M10 A303 RMK A01 T00381097  RH  037%=      5-min Rain = 0
KLO1 121606Z 14010KT 04/M10 A303 RMK A01 T00371098  RH  037%=      5-min Rain = 0
KLO1 121607Z 14011KT 04/M10 A303 RMK A01 T00371098  RH  037%=      5-min Rain = 0
KLO1 121608Z 14010KT 04/M10 A303 RMK A01 T00361099  RH  036%=      5-min Rain = 0
KLO1 121609Z 14010KT 04/M10 A303 RMK A01 T00361099  RH  037%=      5-min Rain = 0
KLO1 121610Z 15008KT 04/M10 A303 RMK A01 T00371098  RH  037%=      5-min Rain = 0
KLO1 121611Z 14009KT 04/M10 A303 RMK A01 T00391096  RH  037%=      5-min Rain = 0
KLO1 121612Z 14009KT 04/M10 A303 RMK A01 T00401097  RH  036%=      5-min Rain = 0
KLO1 121613Z 13007KT 04/M10 A303 RMK A01 T00401097  RH  036%=      5-min Rain = 0
KLO1 121614Z 14010KT 04/M10 A303 RMK A01 T00421095  RH  036%=      5-min Rain = 0
KLO1 121615Z 14010KT 04/M10 A303 RMK A01 T00431096  RH  036%=      5-min Rain = 0
KLO1 121616Z 14008KT 04/M10 A303 RMK A01 T00421097  RH  036%=      5-min Rain = 0
KLO1 121617Z 14009KT 04/M10 A303 RMK A01 T00421097  RH  036%=      5-min Rain = 0
KLO1 121618Z 13010KT 04/M10 A303 RMK A01 T00421096  RH  036%=      5-min Rain = 0
KLO1 121619Z 14009KT 04/M10 A303 RMK A01 T00441096  RH  035%=      5-min Rain = 0
KLO1 121620Z 13008KT 05/M10 A3029 RMK A01 T00451096  RH  035%=      5-min Rain = 0
KLO1 121621Z 14009KT 05/M10 A303 RMK A01 T00471096  RH  035%=      5-min Rain = 0
KLO1 121622Z 14010KT 05/M10 A303 RMK A01 T00471098  RH  034%=      5-min Rain = 0
KLO1 121623Z 13010KT 05/M10 A303 RMK A01 T00471098  RH  034%=      5-min Rain = 0
KLO1 121624Z 14009KT 05/M10 A303 RMK A01 T00471099  RH  034%=      5-min Rain = 0
KLO1 121625Z 14010KT 05/M10 A303 RMK A01 T00471098  RH  034%=      5-min Rain = 0
KLO1 121626Z 14008KT 05/M10 A303 RMK A01 T00471099  RH  034%=      5-min Rain = 0
KLO1 121627Z 14006KT 05/M10 A303 RMK A01 T00461099  RH  034%=      5-min Rain = 0
KLO1 121628Z 13008KT 05/M10 A303 RMK A01 T00471097  RH  034%=      5-min Rain = 0
KLO1 121629Z 12007KT 05/M10 A303 RMK A01 T00481099  RH  034%=      5-min Rain = 0
KLO1 121630Z 14007KT 05/M10 A303 RMK A01 T00471099  RH  034%=      5-min Rain = 0
KLO1 121631Z 15007KT 05/M10 A3029 RMK A01 T00501096  RH  034%=      5-min Rain = 0
KLO1 121632Z 14008KT 05/M10 A303 RMK A01 T00511097  RH  033%=      5-min Rain = 0
KLO1 121633Z 15009KT 05/M10 A303 RMK A01 T00521097  RH  033%=      5-min Rain = 0
KLO1 121634Z 14007KT 05/M10 A303 RMK A01 T00531097  RH  033%=      5-min Rain = 0
KLO1 121635Z 15008KT 06/M10 A3029 RMK A01 T00551096  RH  033%=      5-min Rain = 0
KLO1 121636Z 13009KT 06/M10 A3029 RMK A01 T00551099  RH  032%=      5-min Rain = 0
KLO1 121637Z 15008G13KT 05/M10 A3029 RMK A01 T00541099  RH  032%=      5-min Rain = 0
KLO1 121638Z 14009KT 06/M10 A3029 RMK A01 T00561096  RH  032%=      5-min Rain = 0
KLO1 121639Z 16010KT 06/M10 A3029 RMK A01 T00581097  RH  032%=      5-min Rain = 0
KLO1 121640Z 16011KT 06/M10 A3029 RMK A01 T00571100  RH  031%=      5-min Rain = 0
KLO1 121641Z 15010KT 06/M10 A3029 RMK A01 T00551101  RH  031%=      5-min Rain = 0
KLO1 121642Z 15010KT 06/M10 A3029 RMK A01 T00551101  RH  031%=      5-min Rain = 0
KLO1 121643Z 14010KT 06/M10 A3029 RMK A01 T00551102  RH  031%=      5-min Rain = 0
KLO1 121644Z 14011KT 06/M10 A3029 RMK A01 T00561101  RH  031%=      5-min Rain = 0
KLO1 121645Z 14010KT 06/M10 A3029 RMK A01 T00561102  RH  031%=      5-min Rain = 0
KLO1 121646Z 15008KT 06/M10 A3029 RMK A01 T00561101  RH  031%=      5-min Rain = 0
KLO1 121647Z 15010KT 06/M10 A3029 RMK A01 T00581101  RH  031%=      5-min Rain = 0
KLO1 121648Z 14010KT 06/M10 A3029 RMK A01 T00571102  RH  031%=      5-min Rain = 0
KLO1 121649Z 14009KT 06/M10 A3029 RMK A01 T00561102  RH  031%=      5-min Rain = 0
KLO1 121650Z 13008KT 06/M10 A3029 RMK A01 T00561101  RH  031%=      5-min Rain = 0
KLO1 121651Z 13008KT 06/M10 A3029 RMK A01 T00571101  RH  031%=      5-min Rain = 0
KLO1 121652Z 13010KT 06/M10 A3029 RMK A01 T00601098  RH  031%=      5-min Rain = 0
KLO1 121653Z 13010KT 06/M10 A3029 RMK A01 T00621099  RH  030%=      5-min Rain = 0
KLO1 121654Z 13009KT 06/M10 A3029 RMK A01 T00601102  RH  030%=      5-min Rain = 0
KLO1 121655Z 13011KT 06/M10 A3029 RMK A01 T00611102  RH  030%=      5-min Rain = 0
KLO1 121656Z 15010KT 06/M10 A3029 RMK A01 T00621102  RH  030%=      5-min Rain = 0
KLO1 121657Z 16009KT 06/M10 A3029 RMK A01 T00621103  RH  029%=      5-min Rain = 0
KLO1 121658Z 15010KT 06/M10 A3029 RMK A01 T00621103  RH  030%=      5-min Rain = 0
KLO1 121659Z 14011KT 06/M11 A3029 RMK A01 T00611105  RH  029%=      5-min Rain = 0
KLO1 121700Z 14011KT 06/M10 A3029 RMK A01 T00631104  RH  029%=      5-min Rain = 0
KLO1 121701Z 14008KT 06/M10 A3029 RMK A01 T00631104  RH  029%=      5-min Rain = 0
KLO1 121702Z 15008KT 06/M11 A3028 RMK A01 T00621105  RH  029%=      5-min Rain = 0
KLO1 121703Z 14009KT 06/M10 A3028 RMK A01 T00631103  RH  029%=      5-min Rain = 0
KLO1 121704Z 13011KT 07/M10 A3028 RMK A01 T00661104  RH  028%=      5-min Rain = 0
KLO1 121705Z 13009KT 07/M10 A3028 RMK A01 T00681104  RH  028%=      5-min Rain = 0
KLO1 121706Z 15010KT 07/M11 A3028 RMK A01 T00701105  RH  028%=      5-min Rain = 0
KLO1 121707Z 13010KT 07/M11 A3028 RMK A01 T00681108  RH  027%=      5-min Rain = 0
KLO1 121708Z 12008KT 07/M11 A3028 RMK A01 T00681105  RH  028%=      5-min Rain = 0
KLO1 121709Z 13008KT 07/M11 A3028 RMK A01 T00681105  RH  028%=      5-min Rain = 0
KLO1 121710Z 15011KT 07/M11 A3028 RMK A01 T00701105  RH  028%=      5-min Rain = 0
KLO1 121711Z 15011KT 07/M11 A3028 RMK A01 T00701110  RH  026%=      5-min Rain = 0
KLO1 121712Z 15010KT 07/M11 A3028 RMK A01 T00701110  RH  027%=      5-min Rain = 0
KLO1 121713Z 15009KT 07/M11 A3028 RMK A01 T00701110  RH  026%=      5-min Rain = 0
KLO1 121714Z 13009KT 07/M11 A3028 RMK A01 T00691110  RH  027%=      5-min Rain = 0
KLO1 121715Z 15011KT 07/M11 A3027 RMK A01 T00701111  RH  026%=      5-min Rain = 0
KLO1 121716Z 14011KT 07/M11 A3027 RMK A01 T00711111  RH  026%=      5-min Rain = 0
KLO1 121717Z 13009KT 07/M11 A3028 RMK A01 T00741109  RH  026%=      5-min Rain = 0
KLO1 121718Z 13009KT 07/M11 A3028 RMK A01 T00741110  RH  026%=      5-min Rain = 0
KLO1 121719Z 13008KT 07/M11 A3027 RMK A01 T00731112  RH  025%=      5-min Rain = 0
KLO1 121720Z 14012KT 07/M11 A3027 RMK A01 T00721112  RH  026%=      5-min Rain = 0
KLO1 121721Z 14010KT 07/M11 A3027 RMK A01 T00721113  RH  026%=      5-min Rain = 0
KLO1 121722Z 14011KT 07/M11 A3027 RMK A01 T00721112  RH  026%=      5-min Rain = 0
KLO1 121723Z 13009KT 07/M11 A3027 RMK A01 T00721111  RH  026%=      5-min Rain = 0
KLO1 121724Z 15012KT 07/M11 A3027 RMK A01 T00721111  RH  026%=      5-min Rain = 0
KLO1 121725Z 15011KT 07/M11 A3027 RMK A01 T00741111  RH  026%=      5-min Rain = 0
KLO1 121726Z 14009KT 07/M11 A3027 RMK A01 T00731112  RH  025%=      5-min Rain = 0
KLO1 121727Z 14010G16KT 07/M11 A3027 RMK A01 T00741110  RH  026%=      5-min Rain = 0
KLO1 121728Z 13010KT 08/M11 A3027 RMK A01 T00761108  RH  026%=      5-min Rain = 0
KLO1 121729Z 14010KT 08/M11 A3027 RMK A01 T00771109  RH  025%=      5-min Rain = 0
KLO1 121730Z 15011KT 08/M11 A3027 RMK A01 T00761111  RH  025%=      5-min Rain = 0
KLO1 121731Z 15012KT 07/M11 A3027 RMK A01 T00741114  RH  025%=      5-min Rain = 0
KLO1 121732Z 14012KT 08/M11 A3027 RMK A01 T00751112  RH  025%=      5-min Rain = 0
KLO1 121733Z 14011KT 08/M11 A3027 RMK A01 T00761110  RH  025%=      5-min Rain = 0
KLO1 121734Z 13011KT 07/M11 A3027 RMK A01 T00741111  RH  025%=      5-min Rain = 0
KLO1 121735Z 15008KT 08/M11 A3027 RMK A01 T00761107  RH  026%=      5-min Rain = 0
KLO1 121736Z 16009KT 08/M11 A3027 RMK A01 T00781107  RH  026%=      5-min Rain = 0
KLO1 121737Z 16008KT 08/M11 A3026 RMK A01 T00761110  RH  025%=      5-min Rain = 0
KLO1 121738Z 13008KT 08/M11 A3026 RMK A01 T00751109  RH  026%=      5-min Rain = 0
KLO1 121739Z 14009KT 08/M11 A3026 RMK A01 T00771107  RH  026%=      5-min Rain = 0
KLO1 121740Z 13010KT 08/M11 A3026 RMK A01 T00801106  RH  026%=      5-min Rain = 0
KLO1 121741Z 14012KT 08/M11 A3026 RMK A01 T00801108  RH  025%=      5-min Rain = 0
KLO1 121742Z 14008KT 08/M11 A3026 RMK A01 T00781109  RH  025%=      5-min Rain = 0
KLO1 121743Z 15008KT 08/M11 A3026 RMK A01 T00781108  RH  025%=      5-min Rain = 0
KLO1 121744Z 14008KT 08/M11 A3026 RMK A01 T00771109  RH  025%=      5-min Rain = 0
KLO1 121745Z 14009KT 08/M11 A3026 RMK A01 T00781108  RH  026%=      5-min Rain = 0
KLO1 121746Z 15011KT 08/M11 A3026 RMK A01 T00801106  RH  025%=      5-min Rain = 0
KLO1 121747Z 15009KT 08/M11 A3026 RMK A01 T00801111  RH  025%=      5-min Rain = 0
KLO1 121748Z 14009KT 08/M11 A3026 RMK A01 T00811109  RH  025%=      5-min Rain = 0
KLO1 121749Z 13008KT 08/M11 A3026 RMK A01 T00821110  RH  024%=      5-min Rain = 0
KLO1 121750Z 14011KT 08/M11 A3026 RMK A01 T00831110  RH  024%=      5-min Rain = 0
KLO1 121751Z 15009KT 08/M11 A3026 RMK A01 T00831113  RH  024%=      5-min Rain = 0
KLO1 121752Z 13013KT 08/M11 A3025 RMK A01 T00831112  RH  024%=      5-min Rain = 0
KLO1 121753Z 13010KT 08/M11 A3026 RMK A01 T00841111  RH  024%=      5-min Rain = 0
KLO1 121754Z 13009KT 08/M11 A3026 RMK A01 T00841112  RH  024%=      5-min Rain = 0
KLO1 121755Z 13013KT 08/M11 A3025 RMK A01 T00841111  RH  024%=      5-min Rain = 0
KLO1 121756Z 14012KT 08/M11 A3025 RMK A01 T00841112  RH  024%=      5-min Rain = 0
KLO1 121757Z 15011KT 09/M11 A3025 RMK A01 T00851113  RH  023%=      5-min Rain = 0
KLO1 121758Z 16011KT 08/M12 A3025 RMK A01 T00841115  RH  023%=      5-min Rain = 0
KLO1 121759Z 14010KT 08/M12 A3025 RMK A01 T00841115  RH  023%=      5-min Rain = 0
KLO1 121800Z 14013KT 09/M11 A3025 RMK A01 T00871114  RH  023%=      5-min Rain = 0
KLO1 121801Z 15013KT 09/M12 A3025 RMK A01 T00881117  RH  022%=      5-min Rain = 0
KLO1 121802Z 15013KT 09/M12 A3025 RMK A01 T00871118  RH  022%=      5-min Rain = 0
KLO1 121803Z 16012KT 09/M12 A3025 RMK A01 T00871118  RH  022%=      5-min Rain = 0
KLO1 121804Z 15010KT 09/M12 A3025 RMK A01 T00871118  RH  022%=      5-min Rain = 0
KLO1 121805Z 16008KT 09/M12 A3024 RMK A01 T00871117  RH  022%=      5-min Rain = 0
KLO1 121806Z 16009KT 09/M12 A3024 RMK A01 T00881117  RH  022%=      5-min Rain = 0
KLO1 121807Z 15009KT 09/M12 A3024 RMK A01 T00891116  RH  022%=      5-min Rain = 0
KLO1 121808Z 15009KT 09/M12 A3024 RMK A01 T00901117  RH  022%=      5-min Rain = 0
KLO1 121809Z 14011KT 09/M12 A3024 RMK A01 T00891119  RH  022%=      5-min Rain = 0
KLO1 121810Z 14013KT 09/M12 A3024 RMK A01 T00901117  RH  022%=      5-min Rain = 0
KLO1 121811Z 13013KT 09/M12 A3024 RMK A01 T00911118  RH  022%=      5-min Rain = 0
KLO1 121812Z 13010KT 09/M12 A3024 RMK A01 T00901120  RH  021%=      5-min Rain = 0
KLO1 121813Z 13012KT 09/M12 A3024 RMK A01 T00901118  RH  022%=      5-min Rain = 0
KLO1 121814Z 15016KT 09/M12 A3023 RMK A01 T00931118  RH  021%=      5-min Rain = 0
KLO1 121815Z 15013KT 09/M12 A3023 RMK A01 T00931120  RH  021%=      5-min Rain = 0
KLO1 121816Z 17011KT 09/M12 A3023 RMK A01 T00941119  RH  021%=      5-min Rain = 0
KLO1 121817Z 17012KT 10/M12 A3023 RMK A01 T00951119  RH  021%=      5-min Rain = 0
KLO1 121818Z 16010KT 09/M12 A3023 RMK A01 T00941121  RH  021%=      5-min Rain = 0
KLO1 121819Z 15010KT 09/M12 A3023 RMK A01 T00931121  RH  021%=      5-min Rain = 0
KLO1 121820Z 15009G16KT 09/M12 A3023 RMK A01 T00941120  RH  021%=      5-min Rain = 0
KLO1 121821Z 15013KT 10/M12 A3023 RMK A01 T00961118  RH  021%=      5-min Rain = 0
KLO1 121822Z 15010KT 10/M12 A3023 RMK A01 T00951120  RH  021%=      5-min Rain = 0
KLO1 121823Z 17010KT 10/M12 A3022 RMK A01 T00951119  RH  021%=      5-min Rain = 0
KLO1 121824Z 16012KT 10/M12 A3022 RMK A01 T00951119  RH  021%=      5-min Rain = 0
KLO1 121825Z 16013KT 09/M12 A3022 RMK A01 T00941120  RH  021%=      5-min Rain = 0
KLO1 121826Z 14012KT 10/M12 A3022 RMK A01 T00951119  RH  021%=      5-min Rain = 0
KLO1 121827Z 15012KT 10/M12 A3022 RMK A01 T00961120  RH  021%=      5-min Rain = 0
KLO1 121828Z 15012KT 10/M12 A3022 RMK A01 T00951121  RH  020%=      5-min Rain = 0
KLO1 121829Z 15014KT 10/M12 A3022 RMK A01 T00961119  RH  021%=      5-min Rain = 0
KLO1 121830Z 15013KT 10/M12 A3022 RMK A01 T00991118  RH  021%=      5-min Rain = 0
KLO1 121831Z 16012KT 10/M12 A3022 RMK A01 T00981119  RH  020%=      5-min Rain = 0
KLO1 121832Z 16011KT 10/M12 A3022 RMK A01 T00961122  RH  020%=      5-min Rain = 0
KLO1 121833Z 15014KT 09/M12 A3022 RMK A01 T00941122  RH  020%=      5-min Rain = 0
KLO1 121834Z 16014KT 10/M12 A3022 RMK A01 T00961119  RH  021%=      5-min Rain = 0
KLO1 121835Z 15011G16KT 10/M12 A3022 RMK A01 T00971119  RH  021%=      5-min Rain = 0
KLO1 121836Z 15010KT 10/M12 A3022 RMK A01 T00971119  RH  020%=      5-min Rain = 0
KLO1 121837Z 16015KT 10/M12 A3022 RMK A01 T00991116  RH  021%=      5-min Rain = 0
KLO1 121838Z 15014KT 10/M12 A3022 RMK A01 T01001117  RH  020%=      5-min Rain = 0
KLO1 121839Z 18010KT 10/M12 A3022 RMK A01 T00991118  RH  020%=      5-min Rain = 0
KLO1 121840Z 19010KT 10/M12 A3022 RMK A01 T00991117  RH  020%=      5-min Rain = 0
KLO1 121841Z 19011KT 10/M12 A3021 RMK A01 T01011117  RH  020%=      5-min Rain = 0
KLO1 121842Z 17013KT 10/M12 A3021 RMK A01 T01001118  RH  020%=      5-min Rain = 0
KLO1 121843Z 14012KT 10/M12 A3021 RMK A01 T01011118  RH  020%=      5-min Rain = 0
KLO1 121844Z 17013KT 10/M12 A3021 RMK A01 T01011118  RH  020%=      5-min Rain = 0
KLO1 121845Z 16012KT 10/M12 A3021 RMK A01 T01021116  RH  020%=      5-min Rain = 0
KLO1 121846Z 15013KT 10/M12 A3021 RMK A01 T01031118  RH  020%=      5-min Rain = 0
KLO1 121847Z 14009KT 10/M12 A3021 RMK A01 T01001121  RH  020%=      5-min Rain = 0
KLO1 121848Z 15009KT 10/M12 A3021 RMK A01 T01021117  RH  020%=      5-min Rain = 0
KLO1 121849Z 18011KT 10/M12 A3021 RMK A01 T01031117  RH  020%=      5-min Rain = 0
KLO1 121850Z 17012KT 10/M12 A3021 RMK A01 T01031116  RH  020%=      5-min Rain = 0
KLO1 121851Z 15012KT 10/M12 A3021 RMK A01 T01031117  RH  020%=      5-min Rain = 0
KLO1 121852Z 16012KT 10/M12 A3021 RMK A01 T01031117  RH  020%=      5-min Rain = 0
KLO1 121853Z 16012KT 10/M12 A3021 RMK A01 T01031117  RH  020%=      5-min Rain = 0
KLO1 121854Z 16014KT 10/M12 A302 RMK A01 T01041116  RH  020%=      5-min Rain = 0
KLO1 121855Z 17013KT 10/M11 A302 RMK A01 T01041114  RH  020%=      5-min Rain = 0
KLO1 121856Z 18011KT 11/M11 A302 RMK A01 T01051114  RH  020%=      5-min Rain = 0
KLO1 121857Z 18009KT 10/M12 A302 RMK A01 T01041116  RH  020%=      5-min Rain = 0
KLO1 121858Z 18010KT 10/M12 A302 RMK A01 T01031116  RH  020%=      5-min Rain = 0
KLO1 121859Z 18013KT 10/M12 A302 RMK A01 T01031116  RH  020%=      5-min Rain = 0
KLO1 121900Z 18013KT 11/M11 A302 RMK A01 T01061113  RH  020%=      5-min Rain = 0
KLO1 121901Z 16013KT 11/M11 A302 RMK A01 T01061114  RH  020%=      5-min Rain = 0
KLO1 121902Z 15011KT 11/M12 A302 RMK A01 T01051115  RH  020%=      5-min Rain = 0
KLO1 121903Z 14009KT 11/M11 A302 RMK A01 T01051114  RH  020%=      5-min Rain = 0
KLO1 121904Z 17009KT 11/M12 A302 RMK A01 T01051115  RH  020%=      5-min Rain = 0
KLO1 121905Z 17013G18KT 11/M11 A302 RMK A01 T01071112  RH  020%=      5-min Rain = 0
KLO1 121906Z 18011KT 11/M11 A302 RMK A01 T01081114  RH  020%=      5-min Rain = 0
KLO1 121907Z 18009KT 11/M12 A302 RMK A01 T01061115  RH  020%=      5-min Rain = 0
KLO1 121908Z 17010KT 11/M12 A302 RMK A01 T01051115  RH  020%=      5-min Rain = 0
KLO1 121909Z 17013G18KT 11/M11 A3019 RMK A01 T01061114  RH  020%=      5-min Rain = 0
KLO1 121910Z 17013KT 11/M11 A3019 RMK A01 T01081113  RH  020%=      5-min Rain = 0
KLO1 121911Z 18013KT 11/M11 A3019 RMK A01 T01081114  RH  020%=      5-min Rain = 0
KLO1 121912Z 18008KT 11/M12 A3019 RMK A01 T01051117  RH  020%=      5-min Rain = 0
KLO1 121913Z 16010KT 11/M11 A3019 RMK A01 T01061113  RH  020%=      5-min Rain = 0
KLO1 121914Z 17012KT 11/M11 A3019 RMK A01 T01091110  RH  020%=      5-min Rain = 0
KLO1 121915Z 18011G17KT 11/M11 A3019 RMK A01 T01091112  RH  020%=      5-min Rain = 0
KLO1 121916Z 18012KT 11/M11 A3019 RMK A01 T01081114  RH  020%=      5-min Rain = 0
KLO1 121917Z 17011KT 11/M11 A3019 RMK A01 T01061114  RH  020%=      5-min Rain = 0
KLO1 121918Z 15010KT 11/M11 A3019 RMK A01 T01071111  RH  020%=      5-min Rain = 0
KLO1 121919Z 15010KT 11/M11 A3018 RMK A01 T01071111  RH  020%=      5-min Rain = 0
KLO1 121920Z 17012KT 11/M11 A3018 RMK A01 T01081110  RH  020%=      5-min Rain = 0
KLO1 121921Z 17011KT 11/M11 A3018 RMK A01 T01091111  RH  020%=      5-min Rain = 0
KLO1 121922Z 18013KT 11/M11 A3018 RMK A01 T01081113  RH  020%=      5-min Rain = 0
KLO1 121923Z 18012KT 11/M11 A3018 RMK A01 T01081113  RH  020%=      5-min Rain = 0
KLO1 121924Z 16012KT 11/M11 A3018 RMK A01 T01091109  RH  020%=      5-min Rain = 0
KLO1 121925Z 18014KT 11/M11 A3018 RMK A01 T01121107  RH  020%=      5-min Rain = 0
KLO1 121926Z 18014KT 11/M11 A3018 RMK A01 T01111109  RH  020%=      5-min Rain = 0
KLO1 121927Z 16013KT 11/M11 A3018 RMK A01 T01101110  RH  020%=      5-min Rain = 0
KLO1 121928Z 17012KT 11/M11 A3018 RMK A01 T01081111  RH  020%=      5-min Rain = 0
KLO1 121929Z 17015KT 11/M11 A3018 RMK A01 T01081109  RH  021%=      5-min Rain = 0
KLO1 121930Z 17014KT 11/M11 A3018 RMK A01 T01101106  RH  021%=      5-min Rain = 0
KLO1 121931Z 18014KT 11/M10 A3018 RMK A01 T01111104  RH  021%=      5-min Rain = 0
KLO1 121932Z 18013KT 11/M10 A3018 RMK A01 T01121104  RH  021%=      5-min Rain = 0
KLO1 121933Z 19011KT 11/M11 A3018 RMK A01 T01121105  RH  021%=      5-min Rain = 0
KLO1 121934Z 18010KT 11/M11 A3017 RMK A01 T01121105  RH  021%=      5-min Rain = 0
KLO1 121935Z 20009KT 11/M11 A3017 RMK A01 T01121106  RH  020%=      5-min Rain = 0
KLO1 121941Z 16012KT 11/M11 A3017 RMK A01 T01121106  RH  021%=      5-min Rain = 0
KLO1 121942Z 17013KT 11/M10 A3016 RMK A01 T01131104  RH  021%=      5-min Rain = 0
KLO1 121943Z 17012KT 11/M10 A3016 RMK A01 T01141102  RH  021%=      5-min Rain = 0
KLO1 121944Z 17013KT 12/M10 A3016 RMK A01 T01161101  RH  021%=      5-min Rain = 0
KLO1 121945Z 18013KT 12/M10 A3016 RMK A01 T01151102  RH  021%=      5-min Rain = 0
KLO1 121946Z 18012KT 11/M10 A3016 RMK A01 T01141102  RH  021%=      5-min Rain = 0
KLO1 121947Z 17015KT 11/M10 A3016 RMK A01 T01131100  RH  021%=      5-min Rain = 0
KLO1 121948Z 17013KT 11/M10 A3016 RMK A01 T01131098  RH  022%=      5-min Rain = 0
KLO1 121949Z 19011KT 11/M10 A3016 RMK A01 T01131098  RH  022%=      5-min Rain = 0
KLO1 121950Z 18008KT 11/M10 A3016 RMK A01 T01131098  RH  022%=      5-min Rain = 0
KLO1 121951Z 17008G13KT 11/M10 A3016 RMK A01 T01121099  RH  022%=      5-min Rain = 0
KLO1 121952Z 18011KT 12/M10 A3016 RMK A01 T01151096  RH  022%=      5-min Rain = 0
KLO1 121953Z 18009KT 12/M10 A3015 RMK A01 T01161098  RH  021%=      5-min Rain = 0
KLO1 121954Z 18014KT 12/M10 A3015 RMK A01 T01171097  RH  021%=      5-min Rain = 0
KLO1 121955Z 18011KT 12/M10 A3015 RMK A01 T01171096  RH  022%=      5-min Rain = 0
KLO1 121956Z 16011KT 12/M09 A3015 RMK A01 T01191094  RH  022%=      5-min Rain = 0
KLO1 121957Z 15014KT 12/M10 A3015 RMK A01 T01181096  RH  021%=      5-min Rain = 0
KLO1 121958Z 15013KT 12/M10 A3015 RMK A01 T01161098  RH  021%=      5-min Rain = 0
KLO1 121959Z 15010KT 11/M10 A3015 RMK A01 T01141099  RH  021%=      5-min Rain = 0
KLO1 122000Z 17011KT 11/M10 A3015 RMK A01 T01141097  RH  022%=      5-min Rain = 0
KLO1 122001Z 16012KT 12/M10 A3015 RMK A01 T01171096  RH  021%=      5-min Rain = 0
KLO1 122002Z 15009KT 12/M10 A3015 RMK A01 T01171099  RH  021%=      5-min Rain = 0
KLO1 122003Z 16009KT 12/M10 A3015 RMK A01 T01151099  RH  021%=      5-min Rain = 0
KLO1 122004Z 15009KT 12/M10 A3015 RMK A01 T01151098  RH  022%=      5-min Rain = 0
KLO1 122005Z 16010KT 12/M10 A3015 RMK A01 T01171096  RH  022%=      5-min Rain = 0
KLO1 122006Z 17009KT 12/M09 A3015 RMK A01 T01221092  RH  022%=      5-min Rain = 0
KLO1 122007Z 16015KT 13/M09 A3015 RMK A01 T01251093  RH  021%=      5-min Rain = 0
KLO1 122008Z 16013KT 12/M10 A3015 RMK A01 T01221098  RH  021%=      5-min Rain = 0
KLO1 122009Z 16013KT 12/M10 A3015 RMK A01 T01201099  RH  021%=      5-min Rain = 0
KLO1 122010Z 16012KT 12/M10 A3015 RMK A01 T01191098  RH  021%=      5-min Rain = 0
KLO1 122011Z 18010KT 12/M10 A3015 RMK A01 T01201097  RH  021%=      5-min Rain = 0
KLO1 122012Z 17009KT 12/M10 A3015 RMK A01 T01221096  RH  021%=      5-min Rain = 0
KLO1 122013Z 18009KT 12/M10 A3015 RMK A01 T01231097  RH  021%=      5-min Rain = 0
KLO1 122014Z 19010KT 12/M10 A3015 RMK A01 T01241095  RH  021%=      5-min Rain = 0
KLO1 122015Z 19012KT 12/M10 A3015 RMK A01 T01241095  RH  021%=      5-min Rain = 0
KLO1 122016Z 18011KT 12/M10 A3014 RMK A01 T01241096  RH  021%=      5-min Rain = 0
KLO1 122017Z 17010G15KT 13/M10 A3015 RMK A01 T01251095  RH  021%=      5-min Rain = 0
KLO1 122018Z 17013KT 13/M09 A3014 RMK A01 T01281092  RH  021%=      5-min Rain = 0
KLO1 122019Z 16012KT 13/M09 A3014 RMK A01 T01281094  RH  020%=      5-min Rain = 0
KLO1 122020Z 17009KT 12/M09 A3014 RMK A01 T01241094  RH  021%=      5-min Rain = 0
KLO1 122021Z 18016KT 13/M09 A3014 RMK A01 T01271091  RH  021%=      5-min Rain = 0
KLO1 122022Z 17014KT 13/M09 A3014 RMK A01 T01251094  RH  021%=      5-min Rain = 0
KLO1 122023Z 17009G15KT 12/M10 A3014 RMK A01 T01231095  RH  021%=      5-min Rain = 0
KLO1 122024Z 17010KT 12/M09 A3014 RMK A01 T01231093  RH  021%=      5-min Rain = 0
KLO1 122025Z 18011KT 12/M09 A3014 RMK A01 T01241094  RH  021%=      5-min Rain = 0
KLO1 122026Z 19011KT 13/M09 A3014 RMK A01 T01251094  RH  021%=      5-min Rain = 0
KLO1 122027Z 17013KT 13/M09 A3014 RMK A01 T01251094  RH  021%=      5-min Rain = 0
KLO1 122028Z 17013KT 13/M09 A3014 RMK A01 T01261093  RH  021%=      5-min Rain = 0
KLO1 122029Z 18010KT 13/M09 A3014 RMK A01 T01261092  RH  021%=      5-min Rain = 0
KLO1 122030Z 18008KT 13/M09 A3014 RMK A01 T01251091  RH  021%=      5-min Rain = 0
KLO1 122031Z 17008KT 13/M09 A3014 RMK A01 T01271090  RH  021%=      5-min Rain = 0
KLO1 122032Z 18015KT 13/M09 A3014 RMK A01 T01311090  RH  021%=      5-min Rain = 0
KLO1 122033Z 17014KT 13/M09 A3014 RMK A01 T01301092  RH  020%=      5-min Rain = 0
KLO1 122034Z 18013KT 13/M09 A3014 RMK A01 T01311092  RH  020%=      5-min Rain = 0
KLO1 122035Z 18010KT 13/M09 A3014 RMK A01 T01301093  RH  020%=      5-min Rain = 0
KLO1 122036Z 17010KT 13/M09 A3014 RMK A01 T01291093  RH  020%=      5-min Rain = 0
KLO1 122037Z 19014KT 13/M09 A3014 RMK A01 T01291091  RH  021%=      5-min Rain = 0
KLO1 122038Z 19011KT 13/M09 A3014 RMK A01 T01291091  RH  021%=      5-min Rain = 0
KLO1 122039Z 19009KT 13/M09 A3014 RMK A01 T01271091  RH  021%=      5-min Rain = 0
KLO1 122040Z 18012KT 13/M09 A3014 RMK A01 T01271090  RH  021%=      5-min Rain = 0
KLO1 122041Z 19012KT 13/M09 A3014 RMK A01 T01281089  RH  021%=      5-min Rain = 0
KLO1 122042Z 19010KT 13/M09 A3014 RMK A01 T01281090  RH  021%=      5-min Rain = 0
KLO1 122043Z 19008KT 13/M09 A3014 RMK A01 T01291089  RH  021%=      5-min Rain = 0
KLO1 122044Z 18009G14KT 13/M09 A3014 RMK A01 T01321087  RH  021%=      5-min Rain = 0
KLO1 122045Z 19010KT 13/M09 A3014 RMK A01 T01341089  RH  020%=      5-min Rain = 0
KLO1 122046Z 17010KT 13/M09 A3014 RMK A01 T01331090  RH  020%=      5-min Rain = 0
KLO1 122047Z 16010KT 13/M09 A3014 RMK A01 T01321091  RH  020%=      5-min Rain = 0
KLO1 122048Z 16007KT 13/M09 A3014 RMK A01 T01301093  RH  020%=      5-min Rain = 0
KLO1 122049Z 17008KT 13/M09 A3014 RMK A01 T01281092  RH  021%=      5-min Rain = 0
KLO1 122050Z 18006KT 13/M09 A3014 RMK A01 T01291091  RH  021%=      5-min Rain = 0
KLO1 122051Z 20007KT 13/M09 A3014 RMK A01 T01311090  RH  021%=      5-min Rain = 0
KLO1 122052Z 20009KT 13/M09 A3014 RMK A01 T01321089  RH  021%=      5-min Rain = 0
KLO1 122053Z 20006KT 13/M09 A3014 RMK A01 T01321090  RH  020%=      5-min Rain = 0
KLO1 122054Z 19008KT 13/M09 A3014 RMK A01 T01321088  RH  021%=      5-min Rain = 0
KLO1 122055Z 19009KT 13/M09 A3014 RMK A01 T01341088  RH  020%=      5-min Rain = 0
KLO1 122056Z 19008KT 13/M09 A3014 RMK A01 T01331090  RH  020%=      5-min Rain = 0
KLO1 122057Z 18010KT 13/M09 A3014 RMK A01 T01321090  RH  020%=      5-min Rain = 0
KLO1 122058Z 18010KT 13/M09 A3014 RMK A01 T01331089  RH  021%=      5-min Rain = 0
KLO1 122059Z 16007KT 13/M09 A3014 RMK A01 T01331089  RH  020%=      5-min Rain = 0
KLO1 122100Z 17008G13KT 13/M09 A3014 RMK A01 T01341089  RH  020%=      5-min Rain = 0
KLO1 122101Z 18011KT 13/M09 A3014 RMK A01 T01341089  RH  020%=      5-min Rain = 0
KLO1 122102Z 17010KT 13/M09 A3014 RMK A01 T01341090  RH  020%=      5-min Rain = 0
KLO1 122103Z 18008KT 13/M09 A3014 RMK A01 T01331092  RH  020%=      5-min Rain = 0
KLO1 122104Z 16008KT 13/M09 A3014 RMK A01 T01331091  RH  020%=      5-min Rain = 0
KLO1 122105Z 15007KT 13/M09 A3014 RMK A01 T01331091  RH  020%=      5-min Rain = 0
KLO1 122106Z 18009KT 13/M09 A3014 RMK A01 T01331091  RH  020%=      5-min Rain = 0
KLO1 122107Z 18009KT 13/M09 A3014 RMK A01 T01331091  RH  020%=      5-min Rain = 0
KLO1 122108Z 18010KT 13/M09 A3014 RMK A01 T01331091  RH  020%=      5-min Rain = 0
KLO1 122109Z 17009KT 13/M09 A3014 RMK A01 T01331090  RH  020%=      5-min Rain = 0
KLO1 122110Z 18005KT 13/M09 A3014 RMK A01 T01321092  RH  020%=      5-min Rain = 0
KLO1 122111Z 18005G13KT 13/M09 A3013 RMK A01 T01311091  RH  021%=      5-min Rain = 0
KLO1 122112Z 18011KT 13/M09 A3013 RMK A01 T01331088  RH  021%=      5-min Rain = 0
KLO1 122113Z 20010KT 14/M09 A3013 RMK A01 T01351087  RH  020%=      5-min Rain = 0
KLO1 122114Z 21009KT 14/M09 A3013 RMK A01 T01361087  RH  020%=      5-min Rain = 0
KLO1 122115Z 20007KT 14/M09 A3013 RMK A01 T01371087  RH  020%=      5-min Rain = 0
KLO1 122116Z 19008KT 14/M09 A3013 RMK A01 T01371087  RH  020%=      5-min Rain = 0
KLO1 122117Z 19010KT 14/M09 A3013 RMK A01 T01381087  RH  020%=      5-min Rain = 0
KLO1 122118Z 20007KT 14/M09 A3013 RMK A01 T01381089  RH  020%=      5-min Rain = 0
KLO1 122119Z 19007KT 14/M09 A3013 RMK A01 T01361090  RH  020%=      5-min Rain = 0
KLO1 122120Z 18010KT 14/M09 A3013 RMK A01 T01371087  RH  020%=      5-min Rain = 0
KLO1 122121Z 17008KT 14/M09 A3013 RMK A01 T01371087  RH  020%=      5-min Rain = 0
KLO1 122122Z 17008KT 14/M09 A3013 RMK A01 T01371087  RH  020%=      5-min Rain = 0
KLO1 122123Z 17008KT 14/M09 A3013 RMK A01 T01371086  RH  020%=      5-min Rain = 0
KLO1 122124Z 18007KT 14/M09 A3013 RMK A01 T01381085  RH  020%=      5-min Rain = 0
KLO1 122125Z 16010KT 14/M09 A3013 RMK A01 T01391085  RH  020%=      5-min Rain = 0
KLO1 122126Z 20013KT 14/M09 A3013 RMK A01 T01401085  RH  020%=      5-min Rain = 0
KLO1 122127Z 21009KT 14/M09 A3013 RMK A01 T01411086  RH  020%=      5-min Rain = 0
KLO1 122128Z 20007KT 14/M09 A3013 RMK A01 T01391087  RH  020%=      5-min Rain = 0
KLO1 122129Z 19007KT 14/M09 A3013 RMK A01 T01381087  RH  020%=      5-min Rain = 0
KLO1 122130Z 18006KT 14/M09 A3013 RMK A01 T01391085  RH  020%=      5-min Rain = 0
KLO1 122131Z 19006KT 14/M09 A3013 RMK A01 T01411085  RH  020%=      5-min Rain = 0
KLO1 122132Z 19009KT 14/M09 A3013 RMK A01 T01401087  RH  020%=      5-min Rain = 0
KLO1 122133Z 18009KT 14/M09 A3013 RMK A01 T01391086  RH  020%=      5-min Rain = 0
KLO1 122134Z 18009KT 14/M09 A3013 RMK A01 T01401085  RH  020%=      5-min Rain = 0
KLO1 122135Z 17008KT 14/M09 A3013 RMK A01 T01401085  RH  020%=      5-min Rain = 0
KLO1 122136Z 17006KT 14/M09 A3013 RMK A01 T01391086  RH  020%=      5-min Rain = 0
KLO1 122137Z 18010KT 14/M09 A3013 RMK A01 T01391085  RH  020%=      5-min Rain = 0
KLO1 122138Z 17008KT 14/M08 A3013 RMK A01 T01401084  RH  020%=      5-min Rain = 0
KLO1 122139Z 18011KT 14/M08 A3013 RMK A01 T01421082  RH  020%=      5-min Rain = 0
KLO1 122140Z 18009KT 14/M08 A3013 RMK A01 T01411084  RH  020%=      5-min Rain = 0
KLO1 122141Z 19007KT 14/M08 A3013 RMK A01 T01411084  RH  020%=      5-min Rain = 0
KLO1 122142Z 20006KT 14/M08 A3013 RMK A01 T01401084  RH  020%=      5-min Rain = 0
KLO1 122143Z 20006KT 14/M08 A3013 RMK A01 T01411084  RH  020%=      5-min Rain = 0
KLO1 122144Z 19005KT 14/M09 A3013 RMK A01 T01401085  RH  020%=      5-min Rain = 0
KLO1 122145Z 19005KT 14/M08 A3013 RMK A01 T01391084  RH  020%=      5-min Rain = 0
KLO1 122146Z 17004KT 14/M09 A3013 RMK A01 T01391085  RH  020%=      5-min Rain = 0
KLO1 122147Z 15003KT 14/M09 A3013 RMK A01 T01381085  RH  020%=      5-min Rain = 0
KLO1 122148Z 16007KT 14/M08 A3013 RMK A01 T01381084  RH  021%=      5-min Rain = 0
KLO1 122149Z 17007KT 14/M09 A3013 RMK A01 T01391085  RH  020%=      5-min Rain = 0
KLO1 122150Z 18006KT 14/M09 A3013 RMK A01 T01391085  RH  020%=      5-min Rain = 0
KLO1 122151Z 17006KT 14/M09 A3013 RMK A01 T01381086  RH  020%=      5-min Rain = 0
KLO1 122152Z 16004KT 14/M09 A3013 RMK A01 T01381085  RH  020%=      5-min Rain = 0
KLO1 122153Z 18008KT 14/M08 A3013 RMK A01 T01381084  RH  020%=      5-min Rain = 0
KLO1 122154Z 19009KT 14/M08 A3013 RMK A01 T01391084  RH  020%=      5-min Rain = 0
KLO1 122155Z 18008KT 14/M08 A3013 RMK A01 T01401084  RH  020%=      5-min Rain = 0
KLO1 122156Z 18009KT 14/M08 A3013 RMK A01 T01401084  RH  020%=      5-min Rain = 0
KLO1 122157Z 17007KT 14/M08 A3013 RMK A01 T01401084  RH  020%=      5-min Rain = 0
KLO1 122158Z 16004KT 14/M08 A3013 RMK A01 T01401084  RH  020%=      5-min Rain = 0
KLO1 122159Z 13003KT 14/M08 A3013 RMK A01 T01401084  RH  020%=      5-min Rain = 0
KLO1 122200Z 16002KT 14/M09 A3013 RMK A01 T01391085  RH  020%=      5-min Rain = 0
KLO1 122201Z 16003KT 14/M09 A3013 RMK A01 T01391085  RH  020%=      5-min Rain = 0
KLO1 122202Z 15004KT 14/M08 A3013 RMK A01 T01401083  RH  020%=      5-min Rain = 0
KLO1 122203Z 13005KT 14/M08 A3013 RMK A01 T01411083  RH  020%=      5-min Rain = 0
KLO1 122204Z 12003KT 14/M08 A3013 RMK A01 T01411084  RH  020%=      5-min Rain = 0
KLO1 122205Z 13007KT 14/M08 A3013 RMK A01 T01401083  RH  020%=      5-min Rain = 0
KLO1 122206Z 14008KT 14/M08 A3013 RMK A01 T01411083  RH  020%=      5-min Rain = 0
KLO1 122207Z 14006KT 14/M08 A3013 RMK A01 T01411083  RH  020%=      5-min Rain = 0
KLO1 122208Z 14005KT 14/M08 A3013 RMK A01 T01411083  RH  020%=      5-min Rain = 0
KLO1 122209Z 16006KT 14/M08 A3013 RMK A01 T01411082  RH  020%=      5-min Rain = 0
KLO1 122210Z 16006KT 14/M08 A3013 RMK A01 T01421082  RH  020%=      5-min Rain = 0
KLO1 122211Z 14006KT 14/M08 A3013 RMK A01 T01421083  RH  020%=      5-min Rain = 0
KLO1 122212Z 13008KT 14/M08 A3013 RMK A01 T01421083  RH  020%=      5-min Rain = 0
KLO1 122213Z 12008KT 14/M08 A3013 RMK A01 T01411083  RH  020%=      5-min Rain = 0
KLO1 122214Z 12006KT 14/M08 A3013 RMK A01 T01411084  RH  020%=      5-min Rain = 0
KLO1 122215Z 12005KT 14/M08 A3013 RMK A01 T01391084  RH  021%=      5-min Rain = 0
KLO1 122216Z 14006KT 14/M08 A3013 RMK A01 T01391083  RH  021%=      5-min Rain = 0
KLO1 122217Z 15005KT 14/M08 A3013 RMK A01 T01401082  RH  021%=      5-min Rain = 0
KLO1 122218Z 17006KT 14/M08 A3013 RMK A01 T01401082  RH  021%=      5-min Rain = 0
KLO1 122219Z 17006KT 14/M08 A3013 RMK A01 T01401081  RH  021%=      5-min Rain = 0
KLO1 122220Z 18006KT 14/M08 A3013 RMK A01 T01411081  RH  021%=      5-min Rain = 0
KLO1 122221Z 18005KT 14/M08 A3013 RMK A01 T01421080  RH  021%=      5-min Rain = 0
KLO1 122222Z 19004KT 14/M08 A3013 RMK A01 T01411081  RH  021%=      5-min Rain = 0
KLO1 122223Z 17004KT 14/M08 A3013 RMK A01 T01421080  RH  021%=      5-min Rain = 0
KLO1 122224Z 15006KT 14/M08 A3013 RMK A01 T01421081  RH  021%=      5-min Rain = 0
KLO1 122225Z 14007KT 14/M08 A3013 RMK A01 T01421081  RH  021%=      5-min Rain = 0
KLO1 122226Z 14007KT 14/M08 A3013 RMK A01 T01431081  RH  020%=      5-min Rain = 0
KLO1 122227Z 12004KT 14/M08 A3013 RMK A01 T01421082  RH  021%=      5-min Rain = 0
KLO1 122228Z 13005KT 14/M08 A3013 RMK A01 T01411081  RH  021%=      5-min Rain = 0
KLO1 122229Z 14005KT 14/M08 A3013 RMK A01 T01411081  RH  021%=      5-min Rain = 0
KLO1 122230Z 13006KT 14/M08 A3013 RMK A01 T01411081  RH  021%=      5-min Rain = 0
KLO1 122231Z 12009KT 14/M08 A3013 RMK A01 T01411081  RH  021%=      5-min Rain = 0
KLO1 122232Z 12008KT 14/M08 A3013 RMK A01 T01421081  RH  021%=      5-min Rain = 0
KLO1 122233Z 12007KT 14/M08 A3013 RMK A01 T01411081  RH  021%=      5-min Rain = 0
KLO1 122234Z 14007KT 14/M08 A3013 RMK A01 T01401082  RH  021%=      5-min Rain = 0
KLO1 122235Z 14006KT 14/M08 A3013 RMK A01 T01401081  RH  021%=      5-min Rain = 0
KLO1 122236Z 11006KT 14/M08 A3013 RMK A01 T01401081  RH  021%=      5-min Rain = 0
KLO1 122237Z 11006KT 14/M08 A3013 RMK A01 T01411080  RH  021%=      5-min Rain = 0
KLO1 122238Z 11007KT 14/M08 A3013 RMK A01 T01411081  RH  021%=      5-min Rain = 0
KLO1 122239Z 12007KT 14/M08 A3013 RMK A01 T01411080  RH  021%=      5-min Rain = 0
KLO1 122240Z 13007KT 14/M08 A3013 RMK A01 T01411081  RH  021%=      5-min Rain = 0
KLO1 122241Z 12008KT 14/M08 A3013 RMK A01 T01401081  RH  021%=      5-min Rain = 0
KLO1 122242Z 12007KT 14/M08 A3013 RMK A01 T01401080  RH  021%=      5-min Rain = 0
KLO1 122243Z 11007KT 14/M08 A3013 RMK A01 T01401080  RH  021%=      5-min Rain = 0
KLO1 122244Z 11006KT 14/M08 A3013 RMK A01 T01391081  RH  021%=      5-min Rain = 0
KLO1 122245Z 11007KT 14/M08 A3013 RMK A01 T01391081  RH  021%=      5-min Rain = 0
KLO1 122246Z 13007KT 14/M08 A3013 RMK A01 T01381080  RH  021%=      5-min Rain = 0
KLO1 122247Z 14008KT 14/M08 A3013 RMK A01 T01391079  RH  021%=      5-min Rain = 0
KLO1 122248Z 14007KT 14/M08 A3013 RMK A01 T01401079  RH  021%=      5-min Rain = 0
KLO1 122249Z 14007KT 14/M08 A3013 RMK A01 T01401079  RH  021%=      5-min Rain = 0
KLO1 122250Z 13006KT 14/M08 A3013 RMK A01 T01401079  RH  021%=      5-min Rain = 0
KLO1 122251Z 13007KT 14/M08 A3013 RMK A01 T01401079  RH  021%=      5-min Rain = 0
KLO1 122252Z 13005KT 14/M08 A3013 RMK A01 T01401079  RH  021%=      5-min Rain = 0
KLO1 122253Z 13005KT 14/M08 A3013 RMK A01 T01391079  RH  021%=      5-min Rain = 0
KLO1 122254Z 13005KT 14/M08 A3013 RMK A01 T01391079  RH  021%=      5-min Rain = 0
KLO1 122255Z 13005KT 14/M08 A3013 RMK A01 T01401078  RH  021%=      5-min Rain = 0
KLO1 122256Z 14005KT 14/M08 A3013 RMK A01 T01401078  RH  021%=      5-min Rain = 0
KLO1 122257Z 13007KT 14/M08 A3013 RMK A01 T01401078  RH  021%=      5-min Rain = 0
KLO1 122258Z 13009KT 14/M08 A3013 RMK A01 T01401079  RH  021%=      5-min Rain = 0
KLO1 122259Z 13009KT 14/M08 A3013 RMK A01 T01401079  RH  021%=      5-min Rain = 0
KLO1 122300Z 12008KT 14/M08 A3013 RMK A01 T01401079  RH  021%=      5-min Rain = 0
KLO1 122301Z 12008KT 14/M08 A3013 RMK A01 T01401079  RH  021%=      5-min Rain = 0
KLO1 122302Z 12009KT 14/M08 A3013 RMK A01 T01401079  RH  021%=      5-min Rain = 0
KLO1 122303Z 12008KT 14/M08 A3013 RMK A01 T01401080  RH  021%=      5-min Rain = 0
KLO1 122304Z 12008KT 14/M08 A3013 RMK A01 T01391079  RH  021%=      5-min Rain = 0
KLO1 122305Z 12008KT 14/M08 A3013 RMK A01 T01391079  RH  021%=      5-min Rain = 0
KLO1 122306Z 12007KT 14/M08 A3013 RMK A01 T01381080  RH  021%=      5-min Rain = 0
KLO1 122307Z 12006KT 14/M08 A3013 RMK A01 T01381080  RH  021%=      5-min Rain = 0
KLO1 122308Z 13008KT 14/M08 A3013 RMK A01 T01381080  RH  021%=      5-min Rain = 0
KLO1 122309Z 13007KT 14/M08 A3013 RMK A01 T01391079  RH  021%=      5-min Rain = 0
KLO1 122310Z 14006KT 14/M08 A3013 RMK A01 T01381079  RH  021%=      5-min Rain = 0
KLO1 122311Z 13007KT 14/M08 A3013 RMK A01 T01391079  RH  021%=      5-min Rain = 0
KLO1 122312Z 12008KT 14/M08 A3013 RMK A01 T01391078  RH  021%=      5-min Rain = 0
KLO1 122313Z 13009KT 14/M08 A3013 RMK A01 T01391079  RH  021%=      5-min Rain = 0
KLO1 122314Z 13008KT 14/M08 A3013 RMK A01 T01381079  RH  021%=      5-min Rain = 0
KLO1 122315Z 14007KT 14/M08 A3013 RMK A01 T01381079  RH  021%=      5-min Rain = 0
KLO1 122316Z 13006KT 14/M08 A3013 RMK A01 T01371079  RH  021%=      5-min Rain = 0
KLO1 122317Z 13006KT 14/M08 A3013 RMK A01 T01371079  RH  021%=      5-min Rain = 0
KLO1 122318Z 13008KT 14/M08 A3013 RMK A01 T01371079  RH  021%=      5-min Rain = 0
KLO1 122319Z 13007KT 14/M08 A3013 RMK A01 T01371079  RH  022%=      5-min Rain = 0
KLO1 122320Z 13007KT 14/M08 A3014 RMK A01 T01371080  RH  021%=      5-min Rain = 0
KLO1 122321Z 13006KT 14/M08 A3014 RMK A01 T01371079  RH  022%=      5-min Rain = 0
KLO1 122322Z 13007KT 14/M08 A3014 RMK A01 T01361080  RH  022%=      5-min Rain = 0
KLO1 122323Z 13008KT 14/M08 A3014 RMK A01 T01361080  RH  021%=      5-min Rain = 0
KLO1 122324Z 12007KT 14/M08 A3014 RMK A01 T01361080  RH  022%=      5-min Rain = 0
KLO1 122325Z 13008KT 14/M08 A3014 RMK A01 T01361080  RH  022%=      5-min Rain = 0
KLO1 122326Z 12008KT 14/M08 A3014 RMK A01 T01351080  RH  022%=      5-min Rain = 0
KLO1 122327Z 12009KT 13/M08 A3014 RMK A01 T01341081  RH  022%=      5-min Rain = 0
KLO1 122328Z 13007KT 13/M08 A3014 RMK A01 T01341081  RH  022%=      5-min Rain = 0
KLO1 122329Z 13007KT 13/M08 A3014 RMK A01 T01341080  RH  022%=      5-min Rain = 0
KLO1 122330Z 13008KT 13/M08 A3014 RMK A01 T01331081  RH  022%=      5-min Rain = 0
KLO1 122331Z 12008KT 13/M08 A3013 RMK A01 T01331081  RH  022%=      5-min Rain = 0
KLO1 122332Z 12006KT 13/M08 A3013 RMK A01 T01331081  RH  022%=      5-min Rain = 0
KLO1 122333Z 12007KT 13/M08 A3013 RMK A01 T01321081  RH  022%=      5-min Rain = 0
KLO1 122334Z 13007KT 13/M08 A3013 RMK A01 T01311082  RH  022%=      5-min Rain = 0
KLO1 122335Z 13007KT 13/M08 A3014 RMK A01 T01311082  RH  022%=      5-min Rain = 0
KLO1 122336Z 13007KT 13/M08 A3014 RMK A01 T01311081  RH  022%=      5-min Rain = 0
KLO1 122337Z 12007KT 13/M08 A3014 RMK A01 T01301082  RH  022%=      5-min Rain = 0
KLO1 122338Z 12008KT 13/M08 A3014 RMK A01 T01301082  RH  022%=      5-min Rain = 0
KLO1 122339Z 12007KT 13/M08 A3014 RMK A01 T01291082  RH  022%=      5-min Rain = 0
KLO1 122340Z 12007KT 13/M08 A3014 RMK A01 T01291082  RH  022%=      5-min Rain = 0
KLO1 122341Z 12007KT 13/M08 A3014 RMK A01 T01281083  RH  022%=      5-min Rain = 0
KLO1 122342Z 12007KT 13/M08 A3014 RMK A01 T01271082  RH  022%=      5-min Rain = 0
KLO1 122343Z 12006KT 13/M08 A3014 RMK A01 T01271082  RH  022%=      5-min Rain = 0
KLO1 122344Z 12006KT 13/M08 A3014 RMK A01 T01261083  RH  022%=      5-min Rain = 0
KLO1 122345Z 12007KT 13/M08 A3014 RMK A01 T01251083  RH  023%=      5-min Rain = 0
KLO1 122346Z 12007KT 12/M08 A3014 RMK A01 T01241083  RH  023%=      5-min Rain = 0
KLO1 122347Z 11007KT 12/M08 A3014 RMK A01 T01241083  RH  023%=      5-min Rain = 0
KLO1 122348Z 11006KT 12/M08 A3014 RMK A01 T01231083  RH  023%=      5-min Rain = 0
KLO1 122349Z 12006KT 12/M08 A3014 RMK A01 T01231083  RH  023%=      5-min Rain = 0
KLO1 122350Z 12006KT 12/M08 A3014 RMK A01 T01221084  RH  023%=      5-min Rain = 0
KLO1 122351Z 12006KT 12/M08 A3014 RMK A01 T01201084  RH  023%=      5-min Rain = 0
KLO1 122352Z 12006KT 12/M08 A3015 RMK A01 T01201084  RH  023%=      5-min Rain = 0
KLO1 122353Z 12006KT 12/M08 A3015 RMK A01 T01191084  RH  023%=      5-min Rain = 0
KLO1 122354Z 12006KT 12/M08 A3015 RMK A01 T01181084  RH  023%=      5-min Rain = 0
KLO1 122355Z 12006KT 12/M09 A3014 RMK A01 T01181085  RH  023%=      5-min Rain = 0
KLO1 122356Z 13006KT 12/M09 A3014 RMK A01 T01171085  RH  024%=      5-min Rain = 0
KLO1 122357Z 12006KT 12/M09 A3014 RMK A01 T01161085  RH  024%=      5-min Rain = 0
KLO1 122358Z 12006KT 12/M09 A3014 RMK A01 T01151085  RH  024%=      5-min Rain = 0
KLO1 122359Z 12007KT 11/M09 A3015 RMK A01 T01141085  RH  024%=      5-min Rain = 0
KLO1 130000Z 12006KT 11/M09 A3015 RMK A01 T01131086  RH  024%=      5-min Rain = 0
KLO1 130001Z 12007KT 11/M09 A3015 RMK A01 T01131086  RH  024%=      5-min Rain = 0
KLO1 130002Z 11007KT 11/M09 A3015 RMK A01 T01111086  RH  024%=      5-min Rain = 0
KLO1 130003Z 12007KT 11/M09 A3015 RMK A01 T01111086  RH  024%=      5-min Rain = 0
KLO1 130004Z 11007KT 11/M09 A3015 RMK A01 T01091087  RH  024%=      5-min Rain = 0
KLO1 130005Z 12007KT 11/M09 A3015 RMK A01 T01081086  RH  025%=      5-min Rain = 0
KLO1 130006Z 12007KT 11/M09 A3015 RMK A01 T01071086  RH  025%=      5-min Rain = 0
KLO1 130007Z 12007KT 11/M09 A3015 RMK A01 T01071086  RH  025%=      5-min Rain = 0
KLO1 130008Z 12007KT 11/M09 A3015 RMK A01 T01061087  RH  025%=      5-min Rain = 0
KLO1 130009Z 12007KT 11/M09 A3015 RMK A01 T01061087  RH  025%=      5-min Rain = 0
KLO1 130010Z 12007KT 10/M09 A3015 RMK A01 T01041088  RH  025%=      5-min Rain = 0
KLO1 130011Z 12007KT 10/M09 A3015 RMK A01 T01031088  RH  025%=      5-min Rain = 0
KLO1 130012Z 13007KT 10/M09 A3015 RMK A01 T01021088  RH  025%=      5-min Rain = 0
KLO1 130013Z 12007KT 10/M09 A3015 RMK A01 T01021088  RH  025%=      5-min Rain = 0
KLO1 130014Z 12007KT 10/M09 A3015 RMK A01 T01011088  RH  026%=      5-min Rain = 0
KLO1 130015Z 12007KT 10/M09 A3015 RMK A01 T01001088  RH  026%=      5-min Rain = 0
KLO1 130016Z 12007KT 10/M09 A3015 RMK A01 T01001088  RH  026%=      5-min Rain = 0
KLO1 130017Z 12007KT 10/M09 A3015 RMK A01 T00991088  RH  026%=      5-min Rain = 0
KLO1 130018Z 12007KT 10/M09 A3015 RMK A01 T00991089  RH  026%=      5-min Rain = 0
KLO1 130019Z 12007KT 10/M09 A3015 RMK A01 T00981089  RH  026%=      5-min Rain = 0
KLO1 130020Z 12007KT 10/M09 A3015 RMK A01 T00971089  RH  026%=      5-min Rain = 0
KLO1 130021Z 12007KT 10/M09 A3015 RMK A01 T00961089  RH  026%=      5-min Rain = 0
KLO1 130022Z 12007KT 10/M09 A3015 RMK A01 T00951090  RH  026%=      5-min Rain = 0
KLO1 130023Z 12007KT 09/M09 A3015 RMK A01 T00941090  RH  026%=      5-min Rain = 0
KLO1 130024Z 12007KT 09/M09 A3015 RMK A01 T00931090  RH  027%=      5-min Rain = 0
KLO1 130025Z 12007KT 09/M09 A3015 RMK A01 T00921090  RH  027%=      5-min Rain = 0
KLO1 130026Z 12007KT 09/M09 A3015 RMK A01 T00911090  RH  027%=      5-min Rain = 0
KLO1 130027Z 13007KT 09/M09 A3015 RMK A01 T00901091  RH  027%=      5-min Rain = 0
KLO1 130028Z 12007KT 09/M09 A3015 RMK A01 T00891091  RH  027%=      5-min Rain = 0
KLO1 130029Z 13006KT 09/M09 A3015 RMK A01 T00891091  RH  027%=      5-min Rain = 0
KLO1 130030Z 12006KT 09/M09 A3016 RMK A01 T00891091  RH  027%=      5-min Rain = 0
KLO1 130031Z 12006KT 09/M09 A3016 RMK A01 T00881091  RH  027%=      5-min Rain = 0
KLO1 130032Z 12005KT 09/M09 A3016 RMK A01 T00881091  RH  027%=      5-min Rain = 0
KLO1 130033Z 12005KT 09/M09 A3016 RMK A01 T00871091  RH  027%=      5-min Rain = 0
KLO1 130034Z 12006KT 09/M09 A3016 RMK A01 T00861091  RH  027%=      5-min Rain = 0
KLO1 130035Z 12006KT 09/M09 A3016 RMK A01 T00861092  RH  027%=      5-min Rain = 0
KLO1 130036Z 12006KT 09/M09 A3016 RMK A01 T00851092  RH  028%=      5-min Rain = 0
KLO1 130037Z 12007KT 08/M09 A3016 RMK A01 T00841092  RH  028%=      5-min Rain = 0
KLO1 130038Z 12007KT 08/M09 A3016 RMK A01 T00831092  RH  028%=      5-min Rain = 0
KLO1 130039Z 12007KT 08/M09 A3016 RMK A01 T00821092  RH  028%=      5-min Rain = 0
KLO1 130040Z 12007KT 08/M09 A3016 RMK A01 T00821091  RH  028%=      5-min Rain = 0
KLO1 130041Z 12007KT 08/M09 A3016 RMK A01 T00821092  RH  028%=      5-min Rain = 0
KLO1 130042Z 12007KT 08/M09 A3016 RMK A01 T00821092  RH  028%=      5-min Rain = 0
KLO1 130043Z 12006KT 08/M09 A3016 RMK A01 T00811092  RH  028%=      5-min Rain = 0
KLO1 130044Z 12006KT 08/M09 A3016 RMK A01 T00801093  RH  028%=      5-min Rain = 0
KLO1 130045Z 12007KT 08/M09 A3016 RMK A01 T00791094  RH  028%=      5-min Rain = 0
KLO1 130046Z 12006KT 08/M10 A3017 RMK A01 T00771095  RH  028%=      5-min Rain = 0
KLO1 130047Z 12006KT 08/M10 A3017 RMK A01 T00761096  RH  029%=      5-min Rain = 0
KLO1 130048Z 12006KT 07/M10 A3017 RMK A01 T00741096  RH  029%=      5-min Rain = 0
KLO1 130049Z 12006KT 07/M10 A3017 RMK A01 T00731096  RH  029%=      5-min Rain = 0
KLO1 130050Z 11005KT 07/M10 A3017 RMK A01 T00721096  RH  029%=      5-min Rain = 0
KLO1 130051Z 11005KT 07/M10 A3017 RMK A01 T00711096  RH  029%=      5-min Rain = 0
KLO1 130052Z 11005KT 07/M10 A3017 RMK A01 T00701096  RH  029%=      5-min Rain = 0
KLO1 130053Z 10006KT 07/M10 A3017 RMK A01 T00691096  RH  030%=      5-min Rain = 0
KLO1 130054Z 10006KT 07/M10 A3017 RMK A01 T00671098  RH  030%=      5-min Rain = 0
KLO1 130055Z 09006KT 07/M10 A3017 RMK A01 T00661098  RH  030%=      5-min Rain = 0
KLO1 130056Z 09007KT 07/M10 A3017 RMK A01 T00651097  RH  030%=      5-min Rain = 0
KLO1 130057Z 10008KT 06/M10 A3017 RMK A01 T00631096  RH  031%=      5-min Rain = 0
KLO1 130058Z 10008KT 06/M10 A3017 RMK A01 T00621096  RH  031%=      5-min Rain = 0
KLO1 130059Z 10008KT 06/M10 A3017 RMK A01 T00611095  RH  032%=      5-min Rain = 0
KLO1 130100Z 10008KT 06/M09 A3017 RMK A01 T00621094  RH  032%=      5-min Rain = 0
KLO1 130101Z 10008KT 06/M09 A3017 RMK A01 T00631093  RH  032%=      5-min Rain = 0
KLO1 130102Z 10008KT 06/M09 A3017 RMK A01 T00641092  RH  032%=      5-min Rain = 0
KLO1 130103Z 10008KT 07/M09 A3018 RMK A01 T00661091  RH  032%=      5-min Rain = 0
KLO1 130104Z 10009KT 07/M09 A3018 RMK A01 T00681091  RH  031%=      5-min Rain = 0
KLO1 130105Z 10009KT 07/M09 A3018 RMK A01 T00711090  RH  031%=      5-min Rain = 0
KLO1 130106Z 10009KT 07/M09 A3018 RMK A01 T00721092  RH  030%=      5-min Rain = 0
KLO1 130107Z 10009KT 07/M09 A3018 RMK A01 T00731092  RH  030%=      5-min Rain = 0
KLO1 130108Z 11009KT 07/M09 A3018 RMK A01 T00741092  RH  030%=      5-min Rain = 0
KLO1 130109Z 10009KT 07/M09 A3018 RMK A01 T00741093  RH  029%=      5-min Rain = 0
KLO1 130110Z 11009KT 07/M09 A3018 RMK A01 T00741094  RH  029%=      5-min Rain = 0
KLO1 130111Z 11009KT 07/M09 A3018 RMK A01 T00731094  RH  029%=      5-min Rain = 0
KLO1 130112Z 11009KT 07/M10 A3018 RMK A01 T00721095  RH  029%=      5-min Rain = 0
KLO1 130113Z 11009KT 07/M10 A3018 RMK A01 T00711095  RH  030%=      5-min Rain = 0
KLO1 130114Z 11009KT 07/M10 A3018 RMK A01 T00711095  RH  030%=      5-min Rain = 0
KLO1 130115Z 11009KT 07/M10 A3018 RMK A01 T00701095  RH  030%=      5-min Rain = 0
KLO1 130116Z 11010KT 07/M10 A3018 RMK A01 T00691096  RH  030%=      5-min Rain = 0
KLO1 130117Z 10009KT 07/M10 A3018 RMK A01 T00691096  RH  030%=      5-min Rain = 0
KLO1 130118Z 10009KT 07/M10 A3018 RMK A01 T00691096  RH  030%=      5-min Rain = 0
KLO1 130119Z 10009KT 07/M10 A3018 RMK A01 T00691097  RH  030%=      5-min Rain = 0
KLO1 130120Z 10008KT 07/M10 A3018 RMK A01 T00681097  RH  030%=      5-min Rain = 0
KLO1 130121Z 10008KT 07/M10 A3018 RMK A01 T00681097  RH  030%=      5-min Rain = 0
KLO1 130122Z 10009KT 07/M10 A3018 RMK A01 T00671097  RH  030%=      5-min Rain = 0
KLO1 130123Z 10009KT 07/M10 A3018 RMK A01 T00671098  RH  030%=      5-min Rain = 0
KLO1 130124Z 10009KT 07/M10 A3018 RMK A01 T00661098  RH  030%=      5-min Rain = 0
KLO1 130125Z 10009KT 07/M10 A3018 RMK A01 T00661098  RH  030%=      5-min Rain = 0
KLO1 130126Z 11010KT 07/M10 A3018 RMK A01 T00661098  RH  030%=      5-min Rain = 0
KLO1 130127Z 11008KT 07/M10 A3018 RMK A01 T00671098  RH  030%=      5-min Rain = 0
KLO1 130128Z 11008KT 07/M10 A3018 RMK A01 T00671098  RH  030%=      5-min Rain = 0
KLO1 130129Z 11009KT 07/M10 A3018 RMK A01 T00671099  RH  029%=      5-min Rain = 0
KLO1 130130Z 11009KT 07/M10 A3018 RMK A01 T00671099  RH  029%=      5-min Rain = 0
KLO1 130131Z 11009KT 07/M10 A3018 RMK A01 T00671099  RH  029%=      5-min Rain = 0
KLO1 130132Z 11009KT 07/M10 A3019 RMK A01 T00671099  RH  029%=      5-min Rain = 0
KLO1 130133Z 11009KT 07/M10 A3019 RMK A01 T00671099  RH  029%=      5-min Rain = 0
KLO1 130134Z 11008KT 07/M10 A3019 RMK A01 T00671100  RH  029%=      5-min Rain = 0
KLO1 130135Z 11008KT 07/M10 A3019 RMK A01 T00671100  RH  029%=      5-min Rain = 0
KLO1 130136Z 11008KT 07/M10 A3019 RMK A01 T00661100  RH  029%=      5-min Rain = 0
KLO1 130137Z 11008KT 07/M10 A3019 RMK A01 T00661100  RH  030%=      5-min Rain = 0
KLO1 130138Z 11008KT 07/M10 A3019 RMK A01 T00651100  RH  030%=      5-min Rain = 0
KLO1 130139Z 11008KT 07/M10 A3019 RMK A01 T00651100  RH  030%=      5-min Rain = 0
KLO1 130140Z 12008KT 06/M10 A3019 RMK A01 T00641100  RH  030%=      5-min Rain = 0
KLO1 130141Z 12007KT 06/M10 A3019 RMK A01 T00641100  RH  030%=      5-min Rain = 0
KLO1 130142Z 12008KT 06/M10 A3019 RMK A01 T00631100  RH  030%=      5-min Rain = 0
KLO1 130143Z 12008KT 06/M10 A3019 RMK A01 T00621100  RH  030%=      5-min Rain = 0
KLO1 130144Z 12007KT 06/M10 A3019 RMK A01 T00611099  RH  031%=      5-min Rain = 0
KLO1 130145Z 12007KT 06/M10 A3019 RMK A01 T00611100  RH  031%=      5-min Rain = 0
KLO1 130146Z 12007KT 06/M10 A3019 RMK A01 T00591100  RH  031%=      5-min Rain = 0
KLO1 130147Z 12007KT 06/M10 A3019 RMK A01 T00591100  RH  031%=      5-min Rain = 0
KLO1 130148Z 12006KT 06/M10 A3019 RMK A01 T00581100  RH  031%=      5-min Rain = 0
KLO1 130149Z 12006KT 06/M10 A3019 RMK A01 T00571100  RH  031%=      5-min Rain = 0
KLO1 130150Z 12005KT 06/M10 A3019 RMK A01 T00561100  RH  031%=      5-min Rain = 0
KLO1 130151Z 12005KT 06/M10 A3019 RMK A01 T00551101  RH  032%=      5-min Rain = 0
KLO1 130152Z 12005KT 05/M10 A3019 RMK A01 T00541101  RH  032%=      5-min Rain = 0
KLO1 130153Z 12006KT 05/M10 A3019 RMK A01 T00531101  RH  032%=      5-min Rain = 0
KLO1 130154Z 12006KT 05/M10 A3019 RMK A01 T00521101  RH  032%=      5-min Rain = 0
KLO1 130155Z 12006KT 05/M10 A3019 RMK A01 T00511101  RH  032%=      5-min Rain = 0
KLO1 130156Z 11006KT 05/M10 A3019 RMK A01 T00511101  RH  032%=      5-min Rain = 0
KLO1 130157Z 11006KT 05/M10 A3019 RMK A01 T00501101  RH  033%=      5-min Rain = 0
KLO1 130158Z 11005KT 05/M10 A302 RMK A01 T00491101  RH  033%=      5-min Rain = 0
KLO1 130159Z 11005KT 05/M10 A302 RMK A01 T00491102  RH  033%=      5-min Rain = 0
KLO1 130200Z 11005KT 05/M10 A302 RMK A01 T00481102  RH  033%=      5-min Rain = 0
KLO1 130201Z 11005KT 05/M10 A302 RMK A01 T00471102  RH  033%=      5-min Rain = 0
KLO1 130202Z 10005KT 05/M10 A302 RMK A01 T00461103  RH  033%=      5-min Rain = 0
KLO1 130203Z 10005KT 05/M10 A302 RMK A01 T00461102  RH  033%=      5-min Rain = 0
KLO1 130204Z 10005KT 05/M10 A302 RMK A01 T00451102  RH  033%=      5-min Rain = 0
KLO1 130205Z 10005KT 05/M10 A302 RMK A01 T00451102  RH  034%=      5-min Rain = 0
KLO1 130206Z 10005KT 04/M10 A302 RMK A01 T00441101  RH  034%=      5-min Rain = 0
KLO1 130207Z 10005KT 04/M10 A302 RMK A01 T00441101  RH  034%=      5-min Rain = 0
KLO1 130208Z 10005KT 05/M10 A302 RMK A01 T00451101  RH  034%=      5-min Rain = 0
KLO1 130209Z 11005KT 04/M10 A302 RMK A01 T00441101  RH  034%=      5-min Rain = 0
KLO1 130210Z 11005KT 04/M10 A302 RMK A01 T00441102  RH  034%=      5-min Rain = 0
KLO1 130211Z 11005KT 04/M10 A302 RMK A01 T00421102  RH  034%=      5-min Rain = 0
KLO1 130212Z 11005KT 04/M10 A302 RMK A01 T00421103  RH  034%=      5-min Rain = 0
KLO1 130213Z 11005KT 04/M10 A302 RMK A01 T00411103  RH  034%=      5-min Rain = 0
KLO1 130214Z 11005KT 04/M10 A3021 RMK A01 T00401103  RH  034%=      5-min Rain = 0
KLO1 130215Z 11005KT 04/M10 A3021 RMK A01 T00401103  RH  035%=      5-min Rain = 0
KLO1 130216Z 11005KT 04/M10 A3021 RMK A01 T00391103  RH  035%=      5-min Rain = 0
KLO1 130217Z 11005KT 04/M10 A3021 RMK A01 T00381103  RH  035%=      5-min Rain = 0
KLO1 130218Z 11005KT 04/M10 A3021 RMK A01 T00381103  RH  035%=      5-min Rain = 0
KLO1 130219Z 11005KT 04/M10 A3021 RMK A01 T00371103  RH  035%=      5-min Rain = 0
KLO1 130220Z 11005KT 04/M10 A3021 RMK A01 T00361104  RH  035%=      5-min Rain = 0
KLO1 130221Z 11005KT 04/M10 A3021 RMK A01 T00361104  RH  035%=      5-min Rain = 0
KLO1 130222Z 11005KT 04/M10 A3021 RMK A01 T00351104  RH  035%=      5-min Rain = 0
KLO1 130223Z 11005KT 04/M10 A3021 RMK A01 T00351104  RH  036%=      5-min Rain = 0
KLO1 130224Z 11005KT 03/M10 A3021 RMK A01 T00341104  RH  036%=      5-min Rain = 0
KLO1 130225Z 10005KT 03/M10 A3021 RMK A01 T00341104  RH  036%=      5-min Rain = 0
KLO1 130226Z 10006KT 03/M10 A3021 RMK A01 T00341103  RH  036%=      5-min Rain = 0
KLO1 130227Z 11006KT 03/M10 A3022 RMK A01 T00341103  RH  036%=      5-min Rain = 0
KLO1 130228Z 11006KT 03/M10 A3022 RMK A01 T00341103  RH  036%=      5-min Rain = 0
KLO1 130229Z 11006KT 03/M10 A3022 RMK A01 T00331103  RH  036%=      5-min Rain = 0
KLO1 130230Z 11006KT 03/M10 A3022 RMK A01 T00331103  RH  036%=      5-min Rain = 0
KLO1 130231Z 11006KT 03/M10 A3022 RMK A01 T00331103  RH  036%=      5-min Rain = 0
KLO1 130232Z 11006KT 03/M10 A3022 RMK A01 T00321103  RH  036%=      5-min Rain = 0
KLO1 130233Z 11006KT 03/M10 A3022 RMK A01 T00321104  RH  036%=      5-min Rain = 0
KLO1 130234Z 11006KT 03/M10 A3022 RMK A01 T00311104  RH  036%=      5-min Rain = 0
KLO1 130235Z 11006KT 03/M10 A3022 RMK A01 T00301104  RH  037%=      5-min Rain = 0
KLO1 130236Z 12005KT 03/M11 A3022 RMK A01 T00291105  RH  037%=      5-min Rain = 0
KLO1 130237Z 12005KT 03/M11 A3022 RMK A01 T00281106  RH  037%=      5-min Rain = 0
KLO1 130238Z 12005KT 03/M11 A3022 RMK A01 T00281106  RH  037%=      5-min Rain = 0
KLO1 130239Z 12006KT 03/M11 A3022 RMK A01 T00261107  RH  037%=      5-min Rain = 0
KLO1 130240Z 12005KT 03/M11 A3022 RMK A01 T00251109  RH  037%=      5-min Rain = 0
KLO1 130241Z 12005KT 02/M11 A3022 RMK A01 T00231110  RH  037%=      5-min Rain = 0
KLO1 130242Z 12005KT 02/M11 A3022 RMK A01 T00231109  RH  037%=      5-min Rain = 0
KLO1 130243Z 11005KT 02/M11 A3022 RMK A01 T00221108  RH  037%=      5-min Rain = 0
KLO1 130244Z 11005KT 02/M11 A3022 RMK A01 T00231107  RH  038%=      5-min Rain = 0
KLO1 130245Z 11005KT 02/M11 A3022 RMK A01 T00231106  RH  038%=      5-min Rain = 0
KLO1 130246Z 10005KT 02/M11 A3022 RMK A01 T00241105  RH  038%=      5-min Rain = 0
KLO1 130247Z 10005KT 03/M10 A3022 RMK A01 T00251104  RH  038%=      5-min Rain = 0
KLO1 130248Z 10005KT 03/M10 A3023 RMK A01 T00251104  RH  038%=      5-min Rain = 0
KLO1 130249Z 10006KT 03/M11 A3023 RMK A01 T00251105  RH  038%=      5-min Rain = 0
KLO1 130250Z 10006KT 03/M11 A3023 RMK A01 T00261105  RH  038%=      5-min Rain = 0
KLO1 130251Z 10006KT 03/M11 A3023 RMK A01 T00251105  RH  038%=      5-min Rain = 0
KLO1 130252Z 10006KT 03/M11 A3023 RMK A01 T00251105  RH  038%=      5-min Rain = 0
KLO1 130253Z 10006KT 03/M11 A3023 RMK A01 T00261105  RH  037%=      5-min Rain = 0
KLO1 130254Z 10006KT 03/M11 A3023 RMK A01 T00271106  RH  037%=      5-min Rain = 0
KLO1 130255Z 10006KT 03/M11 A3023 RMK A01 T00271107  RH  037%=      5-min Rain = 0
KLO1 130256Z 10006KT 03/M11 A3023 RMK A01 T00271106  RH  037%=      5-min Rain = 0
KLO1 130257Z 10006KT 03/M11 A3024 RMK A01 T00281106  RH  037%=      5-min Rain = 0
KLO1 130258Z 10006KT 03/M11 A3024 RMK A01 T00291105  RH  037%=      5-min Rain = 0
KLO1 130259Z 10006KT 03/M11 A3024 RMK A01 T00291105  RH  037%=      5-min Rain = 0
KLO1 130300Z 09006KT 03/M11 A3024 RMK A01 T00301105  RH  036%=      5-min Rain = 0
KLO1 130301Z 09006KT 03/M11 A3024 RMK A01 T00311105  RH  036%=      5-min Rain = 0
KLO1 130302Z 10007KT 03/M11 A3024 RMK A01 T00311105  RH  036%=      5-min Rain = 0
KLO1 130303Z 09007KT 03/M10 A3024 RMK A01 T00321104  RH  036%=      5-min Rain = 0
KLO1 130304Z 09007KT 03/M10 A3025 RMK A01 T00331104  RH  036%=      5-min Rain = 0
KLO1 130305Z 09007KT 03/M10 A3025 RMK A01 T00341104  RH  036%=      5-min Rain = 0
KLO1 130306Z 09008KT 04/M10 A3025 RMK A01 T00351103  RH  035%=      5-min Rain = 0
KLO1 130307Z 09007KT 04/M10 A3025 RMK A01 T00361104  RH  035%=      5-min Rain = 0
KLO1 130308Z 09007KT 04/M10 A3025 RMK A01 T00371104  RH  035%=      5-min Rain = 0
KLO1 130309Z 09006KT 04/M10 A3025 RMK A01 T00371104  RH  035%=      5-min Rain = 0
KLO1 130310Z 09006KT 04/M10 A3025 RMK A01 T00371104  RH  035%=      5-min Rain = 0
KLO1 130311Z 08006KT 04/M11 A3025 RMK A01 T00351105  RH  035%=      5-min Rain = 0
KLO1 130312Z 08006KT 03/M10 A3026 RMK A01 T00331104  RH  036%=      5-min Rain = 0
KLO1 130313Z 08006KT 03/M10 A3026 RMK A01 T00311103  RH  037%=      5-min Rain = 0
KLO1 130314Z 08006KT 03/M10 A3026 RMK A01 T00301102  RH  037%=      5-min Rain = 0
KLO1 130315Z 07006KT 03/M10 A3026 RMK A01 T00291100  RH  038%=      5-min Rain = 0
KLO1 130316Z 07006KT 03/M10 A3026 RMK A01 T00291100  RH  038%=      5-min Rain = 0
KLO1 130317Z 08006KT 03/M10 A3026 RMK A01 T00291100  RH  038%=      5-min Rain = 0
KLO1 130318Z 08006KT 03/M10 A3026 RMK A01 T00291100  RH  038%=      5-min Rain = 0
KLO1 130319Z 08006KT 03/M10 A3026 RMK A01 T00281101  RH  038%=      5-min Rain = 0
KLO1 130320Z 08005KT 03/M10 A3026 RMK A01 T00281101  RH  038%=      5-min Rain = 0
KLO1 130321Z 08005KT 03/M10 A3026 RMK A01 T00271101  RH  038%=      5-min Rain = 0
KLO1 130322Z 08005KT 03/M10 A3026 RMK A01 T00271101  RH  038%=      5-min Rain = 0
KLO1 130323Z 09005KT 03/M10 A3026 RMK A01 T00271101  RH  038%=      5-min Rain = 0
KLO1 130324Z 09005KT 03/M10 A3026 RMK A01 T00271101  RH  038%=      5-min Rain = 0
KLO1 130325Z 10005KT 03/M10 A3027 RMK A01 T00271101  RH  038%=      5-min Rain = 0
KLO1 130326Z 10005KT 03/M10 A3027 RMK A01 T00261100  RH  039%=      5-min Rain = 0
KLO1 130327Z 10005KT 03/M10 A3027 RMK A01 T00261100  RH  039%=      5-min Rain = 0
KLO1 130328Z 10005KT 03/M10 A3027 RMK A01 T00261100  RH  039%=      5-min Rain = 0
KLO1 130329Z 10005KT 03/M10 A3027 RMK A01 T00261100  RH  039%=      5-min Rain = 0
KLO1 130330Z 11006KT 03/M10 A3027 RMK A01 T00271101  RH  039%=      5-min Rain = 0
KLO1 130331Z 11005KT 03/M10 A3027 RMK A01 T00271102  RH  038%=      5-min Rain = 0
KLO1 130332Z 11005KT 03/M10 A3027 RMK A01 T00271103  RH  038%=      5-min Rain = 0
KLO1 130333Z 11006KT 03/M10 A3027 RMK A01 T00271104  RH  037%=      5-min Rain = 0
KLO1 130334Z 11005KT 03/M10 A3027 RMK A01 T00281104  RH  037%=      5-min Rain = 0
KLO1 130335Z 11006KT 03/M11 A3026 RMK A01 T00281105  RH  037%=      5-min Rain = 0
KLO1 130336Z 12006KT 03/M11 A3026 RMK A01 T00281105  RH  037%=      5-min Rain = 0
KLO1 130337Z 12006KT 03/M11 A3026 RMK A01 T00281105  RH  037%=      5-min Rain = 0
KLO1 130338Z 12006KT 03/M11 A3026 RMK A01 T00281105  RH  037%=      5-min Rain = 0
KLO1 130339Z 12007KT 03/M11 A3026 RMK A01 T00281106  RH  037%=      5-min Rain = 0
KLO1 130340Z 12007KT 03/M11 A3026 RMK A01 T00281106  RH  037%=      5-min Rain = 0
KLO1 130341Z 12006KT 03/M11 A3026 RMK A01 T00281106  RH  037%=      5-min Rain = 0
KLO1 130342Z 12006KT 03/M11 A3026 RMK A01 T00281106  RH  037%=      5-min Rain = 0
KLO1 130343Z 12006KT 03/M11 A3026 RMK A01 T00281106  RH  037%=      5-min Rain = 0
KLO1 130344Z 11006KT 03/M11 A3027 RMK A01 T00291105  RH  037%=      5-min Rain = 0
KLO1 130345Z 11006KT 03/M11 A3027 RMK A01 T00291106  RH  036%=      5-min Rain = 0
KLO1 130346Z 11006KT 03/M11 A3027 RMK A01 T00301106  RH  036%=      5-min Rain = 0
KLO1 130347Z 10006KT 03/M11 A3027 RMK A01 T00301106  RH  036%=      5-min Rain = 0
KLO1 130348Z 10006KT 03/M11 A3027 RMK A01 T00301106  RH  036%=      5-min Rain = 0
KLO1 130349Z 10006KT 03/M11 A3027 RMK A01 T00311105  RH  036%=      5-min Rain = 0
KLO1 130350Z 10006KT 03/M11 A3027 RMK A01 T00311106  RH  036%=      5-min Rain = 0
KLO1 130351Z 10005KT 03/M11 A3027 RMK A01 T00321106  RH  036%=      5-min Rain = 0
KLO1 130352Z 11005KT 03/M11 A3027 RMK A01 T00321106  RH  036%=      5-min Rain = 0
KLO1 130353Z 11006KT 03/M11 A3027 RMK A01 T00321106  RH  035%=      5-min Rain = 0
KLO1 130354Z 11005KT 03/M11 A3028 RMK A01 T00321106  RH  035%=      5-min Rain = 0
KLO1 130355Z 11006KT 03/M11 A3028 RMK A01 T00321106  RH  035%=      5-min Rain = 0
KLO1 130356Z 11006KT 03/M11 A3028 RMK A01 T00321106  RH  035%=      5-min Rain = 0
KLO1 130357Z 11005KT 03/M11 A3028 RMK A01 T00321107  RH  035%=      5-min Rain = 0
KLO1 130358Z 11005KT 03/M11 A3028 RMK A01 T00321107  RH  035%=      5-min Rain = 0
KLO1 130359Z 11005KT 03/M11 A3028 RMK A01 T00311108  RH  035%=      5-min Rain = 0
KLO1 130400Z 11005KT 03/M11 A3028 RMK A01 T00311107  RH  035%=      5-min Rain = 0
KLO1 130401Z 11004KT 03/M11 A3028 RMK A01 T00311108  RH  035%=      5-min Rain = 0
KLO1 130402Z 11004KT 03/M11 A3028 RMK A01 T00301108  RH  035%=      5-min Rain = 0
KLO1 130403Z 11004KT 03/M11 A3028 RMK A01 T00301108  RH  036%=      5-min Rain = 0
KLO1 130404Z 11004KT 03/M11 A3028 RMK A01 T00301108  RH  036%=      5-min Rain = 0
KLO1 130405Z 11004KT 03/M11 A3029 RMK A01 T00301108  RH  036%=      5-min Rain = 0
KLO1 130406Z 11003KT 03/M11 A3028 RMK A01 T00301108  RH  036%=      5-min Rain = 0
KLO1 130407Z 12004KT 03/M11 A3028 RMK A01 T00291108  RH  036%=      5-min Rain = 0
KLO1 130408Z 12004KT 03/M11 A3028 RMK A01 T00291108  RH  036%=      5-min Rain = 0
KLO1 130409Z 12004KT 03/M11 A3028 RMK A01 T00281109  RH  036%=      5-min Rain = 0
KLO1 130410Z 11004KT 03/M11 A3028 RMK A01 T00281108  RH  036%=      5-min Rain = 0
KLO1 130411Z 12004KT 03/M11 A3029 RMK A01 T00271109  RH  036%=      5-min Rain = 0
KLO1 130412Z 12004KT 03/M11 A3029 RMK A01 T00271109  RH  036%=      5-min Rain = 0
KLO1 130413Z 12004KT 03/M11 A3029 RMK A01 T00261109  RH  036%=      5-min Rain = 0
KLO1 130414Z 12003KT 03/M11 A3029 RMK A01 T00261109  RH  036%=      5-min Rain = 0
KLO1 130415Z 12004KT 03/M11 A3029 RMK A01 T00261109  RH  036%=      5-min Rain = 0
KLO1 130416Z 12004KT 03/M11 A3029 RMK A01 T00261108  RH  036%=      5-min Rain = 0
KLO1 130417Z 12004KT 03/M11 A3029 RMK A01 T00261109  RH  036%=      5-min Rain = 0
KLO1 130418Z 12003KT 03/M11 A3029 RMK A01 T00261109  RH  036%=      5-min Rain = 0
KLO1 130419Z 12003KT 03/M11 A3029 RMK A01 T00261109  RH  036%=      5-min Rain = 0
KLO1 130420Z 11004KT 03/M11 A3029 RMK A01 T00251109  RH  036%=      5-min Rain = 0
KLO1 130421Z 11003KT 03/M11 A3029 RMK A01 T00251109  RH  036%=      5-min Rain = 0
KLO1 130422Z 10003KT 03/M11 A3029 RMK A01 T00251109  RH  037%=      5-min Rain = 0
KLO1 130423Z 09003KT 03/M11 A3029 RMK A01 T00251109  RH  037%=      5-min Rain = 0
KLO1 130424Z 07004KT 03/M11 A303 RMK A01 T00251109  RH  037%=      5-min Rain = 0
KLO1 130425Z 06004KT 02/M11 A303 RMK A01 T00241109  RH  037%=      5-min Rain = 0
KLO1 130426Z 04005KT 02/M11 A303 RMK A01 T00241109  RH  037%=      5-min Rain = 0
KLO1 130427Z 04006KT 02/M11 A3031 RMK A01 T00211111  RH  037%=      5-min Rain = 0
KLO1 130428Z 04007KT 02/M11 A3031 RMK A01 T00161110  RH  038%=      5-min Rain = 0
KLO1 130429Z 04007KT 01/M11 A3031 RMK A01 T00141108  RH  040%=      5-min Rain = 0
KLO1 130430Z 05006KT 01/M11 A3031 RMK A01 T00121107  RH  041%=      5-min Rain = 0
KLO1 130431Z 05006KT 01/M11 A3031 RMK A01 T00111107  RH  041%=      5-min Rain = 0
KLO1 130432Z 05005KT 01/M11 A3031 RMK A01 T00111107  RH  041%=      5-min Rain = 0
KLO1 130433Z 04005KT 01/M11 A3031 RMK A01 T00121106  RH  041%=      5-min Rain = 0
KLO1 130434Z 04005KT 01/M11 A3031 RMK A01 T00131106  RH  041%=      5-min Rain = 0
KLO1 130435Z 04004KT 01/M11 A3031 RMK A01 T00141105  RH  041%=      5-min Rain = 0
KLO1 130436Z 05003KT 01/M11 A3031 RMK A01 T00141105  RH  041%=      5-min Rain = 0
KLO1 130437Z 06003KT 02/M11 A3031 RMK A01 T00151105  RH  040%=      5-min Rain = 0
KLO1 130438Z 06003KT 02/M10 A3031 RMK A01 T00171104  RH  040%=      5-min Rain = 0
KLO1 130439Z 06003KT 02/M10 A3031 RMK A01 T00181104  RH  040%=      5-min Rain = 0
KLO1 130440Z 06002KT 02/M11 A3031 RMK A01 T00191105  RH  039%=      5-min Rain = 0
KLO1 130441Z 06002KT 02/M11 A3031 RMK A01 T00201105  RH  039%=      5-min Rain = 0
KLO1 130442Z 06002KT 02/M11 A3031 RMK A01 T00201105  RH  039%=      5-min Rain = 0
KLO1 130443Z 07002KT 02/M11 A3031 RMK A01 T00201106  RH  039%=      5-min Rain = 0
KLO1 130444Z 08002KT 02/M11 A3031 RMK A01 T00191107  RH  039%=      5-min Rain = 0
KLO1 130445Z 08002KT 02/M11 A3031 RMK A01 T00171109  RH  039%=      5-min Rain = 0
KLO1 130446Z 08002KT 02/M11 A3031 RMK A01 T00151111  RH  039%=      5-min Rain = 0
KLO1 130447Z 08002KT 01/M11 A3031 RMK A01 T00131111  RH  039%=      5-min Rain = 0
KLO1 130448Z 06003KT 01/M11 A3032 RMK A01 T00131110  RH  040%=      5-min Rain = 0
KLO1 130449Z 05002KT 01/M11 A3032 RMK A01 T00131109  RH  040%=      5-min Rain = 0
KLO1 130450Z 03003KT 01/M11 A3032 RMK A01 T00131109  RH  040%=      5-min Rain = 0
KLO1 130451Z 04003KT 01/M11 A3032 RMK A01 T00131108  RH  040%=      5-min Rain = 0
KLO1 130452Z 04003KT 01/M11 A3033 RMK A01 T00141107  RH  040%=      5-min Rain = 0
KLO1 130453Z 04004KT 01/M11 A3033 RMK A01 T00141107  RH  040%=      5-min Rain = 0
KLO1 130454Z 04003KT 02/M11 A3033 RMK A01 T00151106  RH  040%=      5-min Rain = 0
KLO1 130455Z 03003KT 02/M11 A3033 RMK A01 T00151108  RH  039%=      5-min Rain = 0
KLO1 130456Z 04003KT 02/M11 A3033 RMK A01 T00151109  RH  039%=      5-min Rain = 0
KLO1 130457Z 05003KT 01/M11 A3033 RMK A01 T00141109  RH  039%=      5-min Rain = 0
KLO1 130458Z 04003KT 01/M11 A3033 RMK A01 T00141109  RH  040%=      5-min Rain = 0
KLO1 130459Z 04003KT 01/M11 A3033 RMK A01 T00141109  RH  040%=      5-min Rain = 0
KLO1 130500Z 03004KT 01/M11 A3033 RMK A01 T00141109  RH  039%=      5-min Rain = 0
KLO1 130501Z 01004KT 02/M11 A3033 RMK A01 T00151109  RH  039%=      5-min Rain = 0
KLO1 130502Z 03004KT 02/M11 A3033 RMK A01 T00151109  RH  039%=      5-min Rain = 0
KLO1 130503Z 04003KT 02/M11 A3033 RMK A01 T00151109  RH  039%=      5-min Rain = 0
KLO1 130504Z 04003KT 02/M11 A3033 RMK A01 T00161109  RH  039%=      5-min Rain = 0
KLO1 130505Z 05003KT 02/M11 A3033 RMK A01 T00161110  RH  039%=      5-min Rain = 0
KLO1 130506Z 04004KT 02/M11 A3033 RMK A01 T00161110  RH  039%=      5-min Rain = 0
KLO1 130507Z 04004KT 02/M11 A3033 RMK A01 T00151111  RH  039%=      5-min Rain = 0
KLO1 130508Z 04003KT 02/M11 A3033 RMK A01 T00151109  RH  039%=      5-min Rain = 0
KLO1 130509Z 04003KT 02/M11 A3033 RMK A01 T00151108  RH  040%=      5-min Rain = 0
KLO1 130510Z 04003KT 01/M11 A3033 RMK A01 T00141109  RH  039%=      5-min Rain = 0
KLO1 130511Z 03003KT 01/M11 A3033 RMK A01 T00141110  RH  039%=      5-min Rain = 0
KLO1 130512Z 04004KT 01/M11 A3033 RMK A01 T00141111  RH  039%=      5-min Rain = 0
KLO1 130513Z 04004KT 01/M11 A3033 RMK A01 T00131112  RH  039%=      5-min Rain = 0
KLO1 130514Z 04005KT 01/M11 A3034 RMK A01 T00131112  RH  039%=      5-min Rain = 0
KLO1 130515Z 04005KT 01/M11 A3034 RMK A01 T00121112  RH  039%=      5-min Rain = 0
KLO1 130516Z 05005KT 01/M11 A3034 RMK A01 T00131112  RH  039%=      5-min Rain = 0
KLO1 130517Z 05005KT 01/M11 A3034 RMK A01 T00121113  RH  039%=      5-min Rain = 0
KLO1 130518Z 06005KT 01/M11 A3034 RMK A01 T00111113  RH  039%=      5-min Rain = 0
KLO1 130519Z 05005KT 01/M11 A3034 RMK A01 T00101112  RH  040%=      5-min Rain = 0
KLO1 130520Z 05005KT 01/M11 A3034 RMK A01 T00101112  RH  040%=      5-min Rain = 0
KLO1 130521Z 05006KT 01/M11 A3034 RMK A01 T00101112  RH  040%=      5-min Rain = 0
KLO1 130522Z 05006KT 01/M11 A3034 RMK A01 T00101111  RH  040%=      5-min Rain = 0
KLO1 130523Z 05006KT 01/M11 A3034 RMK A01 T00091111  RH  040%=      5-min Rain = 0
KLO1 130524Z 04005KT 01/M11 A3034 RMK A01 T00091110  RH  040%=      5-min Rain = 0
KLO1 130525Z 04005KT 01/M11 A3034 RMK A01 T00091110  RH  041%=      5-min Rain = 0
KLO1 130526Z 04006KT 01/M11 A3034 RMK A01 T00081110  RH  041%=      5-min Rain = 0
KLO1 130527Z 04005KT 01/M11 A3034 RMK A01 T00071111  RH  041%=      5-min Rain = 0
KLO1 130528Z 04004KT 01/M11 A3035 RMK A01 T00061111  RH  041%=      5-min Rain = 0
KLO1 130529Z 04004KT 01/M11 A3035 RMK A01 T00051111  RH  041%=      5-min Rain = 0
KLO1 130530Z 04005KT 01/M11 A3035 RMK A01 T00051111  RH  041%=      5-min Rain = 0
KLO1 130531Z 04006KT 01/M11 A3035 RMK A01 T00051111  RH  042%=      5-min Rain = 0
KLO1 130532Z 03006KT 01/M11 A3035 RMK A01 T00051110  RH  042%=      5-min Rain = 0
KLO1 130533Z 03007KT 00/M11 A3035 RMK A01 T00041111  RH  042%=      5-min Rain = 0
KLO1 130534Z 03008KT 00/M11 A3035 RMK A01 T00041110  RH  042%=      5-min Rain = 0
KLO1 130535Z 03008KT 00/M11 A3035 RMK A01 T00041110  RH  042%=      5-min Rain = 0
KLO1 130536Z 03009KT 01/M11 A3036 RMK A01 T00051109  RH  042%=      5-min Rain = 0
KLO1 130537Z 03010KT 01/M11 A3036 RMK A01 T00061108  RH  042%=      5-min Rain = 0
KLO1 130538Z 03010KT 01/M11 A3036 RMK A01 T00081108  RH  042%=      5-min Rain = 0
KLO1 130539Z 03009KT 01/M11 A3036 RMK A01 T00091108  RH  041%=      5-min Rain = 0
KLO1 130540Z 03009KT 01/M11 A3036 RMK A01 T00101108  RH  041%=      5-min Rain = 0
KLO1 130541Z 04008KT 01/M11 A3036 RMK A01 T00111109  RH  040%=      5-min Rain = 0
KLO1 130542Z 04008KT 01/M11 A3036 RMK A01 T00111109  RH  040%=      5-min Rain = 0
KLO1 130543Z 04008KT 01/M11 A3036 RMK A01 T00121109  RH  040%=      5-min Rain = 0
KLO1 130544Z 05007KT 01/M11 A3036 RMK A01 T00121109  RH  040%=      5-min Rain = 0
KLO1 130545Z 05008KT 01/M11 A3036 RMK A01 T00131109  RH  040%=      5-min Rain = 0
KLO1 130546Z 05008KT 01/M11 A3036 RMK A01 T00141109  RH  039%=      5-min Rain = 0
KLO1 130547Z 05009KT 02/M11 A3036 RMK A01 T00161109  RH  039%=      5-min Rain = 0
KLO1 130548Z 05009KT 02/M11 A3036 RMK A01 T00161109  RH  039%=      5-min Rain = 0
KLO1 130549Z 05010KT 02/M11 A3036 RMK A01 T00161109  RH  039%=      5-min Rain = 0
KLO1 130550Z 05009KT 02/M11 A3036 RMK A01 T00171109  RH  039%=      5-min Rain = 0
KLO1 130551Z 05009KT 02/M11 A3036 RMK A01 T00171109  RH  039%=      5-min Rain = 0
KLO1 130552Z 05008KT 02/M11 A3036 RMK A01 T00171109  RH  039%=      5-min Rain = 0
KLO1 130553Z 04007KT 02/M11 A3036 RMK A01 T00181109  RH  039%=      5-min Rain = 0
KLO1 130554Z 04008KT 02/M11 A3036 RMK A01 T00181109  RH  039%=      5-min Rain = 0
KLO1 130555Z 04008KT 02/M11 A3036 RMK A01 T00171109  RH  039%=      5-min Rain = 0
KLO1 130556Z 04007KT 02/M11 A3037 RMK A01 T00171109  RH  039%=      5-min Rain = 0
KLO1 130557Z 04007KT 02/M11 A3037 RMK A01 T00171109  RH  039%=      5-min Rain = 0
KLO1 130558Z 05008KT 02/M11 A3036 RMK A01 T00181109  RH  039%=      5-min Rain = 0
KLO1 130559Z 05009KT 02/M11 A3037 RMK A01 T00191108  RH  038%=      5-min Rain = 0

Page generated in 0.0812 seconds.